<?xml version='1.0' encoding='UTF-8'?><gpx version="1.1" creator="JPX - https://github.com/jenetics/jpx" xmlns="http://www.topografix.com/GPX/1/1"><trk><trkseg><trkpt lat="43.774562" lon="11.2625004"><ele>56.00000000000001</ele><time>2026-04-02T12:50:07.906Z</time></trkpt><trkpt lat="43.7744903" lon="11.2624649"><ele>56.0</ele><time>2026-04-02T12:50:20.905Z</time></trkpt><trkpt lat="43.7744184" lon="11.2624321"><ele>56.0</ele><time>2026-04-02T12:50:26.905Z</time></trkpt><trkpt lat="43.7743389" lon="11.2623891"><ele>56.0</ele><time>2026-04-02T12:50:29.905Z</time></trkpt><trkpt lat="43.774276" lon="11.2623509"><ele>56.00000000000001</ele><time>2026-04-02T12:50:32.906Z</time></trkpt><trkpt lat="43.7741987" lon="11.2622842"><ele>56.0</ele><time>2026-04-02T12:50:35.905Z</time></trkpt><trkpt lat="43.774145" lon="11.2622317"><ele>55.833333333333336</ele><time>2026-04-02T12:50:38.905Z</time></trkpt><trkpt lat="43.7740783" lon="11.26214"><ele>55.66666666666667</ele><time>2026-04-02T12:50:41.905Z</time></trkpt><trkpt lat="43.774025" lon="11.262075"><ele>55.5</ele><time>2026-04-02T12:50:43.905Z</time></trkpt><trkpt lat="43.7739717" lon="11.2620217"><ele>55.33333333333333</ele><time>2026-04-02T12:50:46.906Z</time></trkpt><trkpt lat="43.773905" lon="11.2619533"><ele>55.166666666666664</ele><time>2026-04-02T12:50:50.906Z</time></trkpt><trkpt lat="43.7738433" lon="11.2618933"><ele>55.0</ele><time>2026-04-02T12:50:53.905Z</time></trkpt><trkpt lat="43.77378" lon="11.2618117"><ele>54.99999999999999</ele><time>2026-04-02T12:50:56.906Z</time></trkpt><trkpt lat="43.77373" lon="11.2617183"><ele>55.0</ele><time>2026-04-02T12:50:59.905Z</time></trkpt><trkpt lat="43.773685" lon="11.2616533"><ele>55.0</ele><time>2026-04-02T12:51:01.905Z</time></trkpt><trkpt lat="43.7736183" lon="11.2615717"><ele>55.0</ele><time>2026-04-02T12:51:04.905Z</time></trkpt><trkpt lat="43.773565" lon="11.2615183"><ele>54.99999999999999</ele><time>2026-04-02T12:51:06.905Z</time></trkpt><trkpt lat="43.7735083" lon="11.2614617"><ele>55.0</ele><time>2026-04-02T12:51:08.905Z</time></trkpt><trkpt lat="43.7734383" lon="11.2613917"><ele>54.99999999999999</ele><time>2026-04-02T12:51:11.906Z</time></trkpt><trkpt lat="43.7733717" lon="11.2613233"><ele>55.0</ele><time>2026-04-02T12:51:14.905Z</time></trkpt><trkpt lat="43.77331" lon="11.2612617"><ele>55.0</ele><time>2026-04-02T12:51:17.905Z</time></trkpt><trkpt lat="43.7732383" lon="11.2611917"><ele>55.0</ele><time>2026-04-02T12:51:20.905Z</time></trkpt><trkpt lat="43.7731867" lon="11.26114"><ele>54.99999999999999</ele><time>2026-04-02T12:51:22.905Z</time></trkpt><trkpt lat="43.7731183" lon="11.2610717"><ele>55.0</ele><time>2026-04-02T12:51:25.905Z</time></trkpt><trkpt lat="43.7730583" lon="11.2610117"><ele>55.0</ele><time>2026-04-02T12:51:27.905Z</time></trkpt><trkpt lat="43.77299" lon="11.2609417"><ele>55.0</ele><time>2026-04-02T12:51:29.905Z</time></trkpt><trkpt lat="43.7729383" lon="11.26089"><ele>55.0</ele><time>2026-04-02T12:51:31.905Z</time></trkpt><trkpt lat="43.7728867" lon="11.2608383"><ele>55.0</ele><time>2026-04-02T12:51:33.906Z</time></trkpt><trkpt lat="43.7728367" lon="11.260785"><ele>55.0</ele><time>2026-04-02T12:51:35.905Z</time></trkpt><trkpt lat="43.7726683" lon="11.2605967"><ele>54.99999999999999</ele><time>2026-04-02T12:51:37.905Z</time></trkpt><trkpt lat="43.772625" lon="11.26053"><ele>55.0</ele><time>2026-04-02T12:51:40.905Z</time></trkpt><trkpt lat="43.7726967" lon="11.26044"><ele>55.0</ele><time>2026-04-02T12:51:43.906Z</time></trkpt><trkpt lat="43.7727533" lon="11.2603533"><ele>55.0</ele><time>2026-04-02T12:51:45.905Z</time></trkpt><trkpt lat="43.7728167" lon="11.2602733"><ele>54.99999999999999</ele><time>2026-04-02T12:51:47.905Z</time></trkpt><trkpt lat="43.77287" lon="11.2601917"><ele>55.0</ele><time>2026-04-02T12:51:50.906Z</time></trkpt><trkpt lat="43.7729117" lon="11.2601233"><ele>54.99999999999999</ele><time>2026-04-02T12:51:53.906Z</time></trkpt><trkpt lat="43.7729617" lon="11.26004"><ele>55.0</ele><time>2026-04-02T12:51:56.905Z</time></trkpt><trkpt lat="43.7730117" lon="11.2599583"><ele>55.0</ele><time>2026-04-02T12:52:00.905Z</time></trkpt><trkpt lat="43.7730533" lon="11.2598867"><ele>55.0</ele><time>2026-04-02T12:52:03.906Z</time></trkpt><trkpt lat="43.773105" lon="11.2597983"><ele>54.99999999999999</ele><time>2026-04-02T12:52:07.905Z</time></trkpt><trkpt lat="43.7731533" lon="11.2597167"><ele>55.0</ele><time>2026-04-02T12:52:10.905Z</time></trkpt><trkpt lat="43.7732" lon="11.2596383"><ele>55.49999999999999</ele><time>2026-04-02T12:52:13.906Z</time></trkpt><trkpt lat="43.7732567" lon="11.25954"><ele>56.0</ele><time>2026-04-02T12:52:16.906Z</time></trkpt><trkpt lat="43.7732983" lon="11.25945"><ele>56.5</ele><time>2026-04-02T12:52:20.905Z</time></trkpt><trkpt lat="43.7733233" lon="11.2593617"><ele>57.0</ele><time>2026-04-02T12:52:23.905Z</time></trkpt><trkpt lat="43.7733667" lon="11.2592517"><ele>57.49999999999999</ele><time>2026-04-02T12:52:26.905Z</time></trkpt><trkpt lat="43.7734083" lon="11.2591783"><ele>58.0</ele><time>2026-04-02T12:52:28.905Z</time></trkpt><trkpt lat="43.7734533" lon="11.2591033"><ele>58.0</ele><time>2026-04-02T12:52:30.906Z</time></trkpt><trkpt lat="43.7735183" lon="11.25902"><ele>58.0</ele><time>2026-04-02T12:52:34.905Z</time></trkpt><trkpt lat="43.773585" lon="11.25896"><ele>58.0</ele><time>2026-04-02T12:52:37.906Z</time></trkpt><trkpt lat="43.7736783" lon="11.2589433"><ele>58.0</ele><time>2026-04-02T12:52:39.906Z</time></trkpt><trkpt lat="43.7737633" lon="11.2588667"><ele>58.0</ele><time>2026-04-02T12:52:41.905Z</time></trkpt><trkpt lat="43.7738583" lon="11.2587983"><ele>58.33333333333333</ele><time>2026-04-02T12:52:43.906Z</time></trkpt><trkpt lat="43.77393" lon="11.2587"><ele>58.666666666666664</ele><time>2026-04-02T12:52:45.905Z</time></trkpt><trkpt lat="43.773985" lon="11.258595"><ele>59.0</ele><time>2026-04-02T12:52:47.906Z</time></trkpt><trkpt lat="43.774025" lon="11.2585267"><ele>59.33333333333333</ele><time>2026-04-02T12:52:50.905Z</time></trkpt><trkpt lat="43.774095" lon="11.2584467"><ele>59.666666666666664</ele><time>2026-04-02T12:52:54.905Z</time></trkpt><trkpt lat="43.774155" lon="11.2583483"><ele>60.0</ele><time>2026-04-02T12:52:56.906Z</time></trkpt><trkpt lat="43.774185" lon="11.25824"><ele>60.0</ele><time>2026-04-02T12:52:58.905Z</time></trkpt><trkpt lat="43.77423" lon="11.25815"><ele>60.0</ele><time>2026-04-02T12:53:00.905Z</time></trkpt><trkpt lat="43.7742583" lon="11.258045"><ele>60.0</ele><time>2026-04-02T12:53:02.905Z</time></trkpt><trkpt lat="43.7742567" lon="11.2579483"><ele>60.0</ele><time>2026-04-02T12:53:04.905Z</time></trkpt><trkpt lat="43.774345" lon="11.257755"><ele>60.0</ele><time>2026-04-02T12:53:10.905Z</time></trkpt><trkpt lat="43.7743983" lon="11.2576667"><ele>60.2</ele><time>2026-04-02T12:53:13.905Z</time></trkpt><trkpt lat="43.7744467" lon="11.2575467"><ele>60.4</ele><time>2026-04-02T12:53:16.905Z</time></trkpt><trkpt lat="43.7745083" lon="11.2574333"><ele>60.599999999999994</ele><time>2026-04-02T12:53:19.906Z</time></trkpt><trkpt lat="43.7745283" lon="11.25735"><ele>60.8</ele><time>2026-04-02T12:53:21.906Z</time></trkpt><trkpt lat="43.7745533" lon="11.25723"><ele>61.0</ele><time>2026-04-02T12:53:24.905Z</time></trkpt><trkpt lat="43.7745467" lon="11.25709"><ele>60.99999999999999</ele><time>2026-04-02T12:53:27.905Z</time></trkpt><trkpt lat="43.7745533" lon="11.257"><ele>61.0</ele><time>2026-04-02T12:53:29.905Z</time></trkpt><trkpt lat="43.7745767" lon="11.2569167"><ele>61.0</ele><time>2026-04-02T12:53:31.905Z</time></trkpt><trkpt lat="43.77461" lon="11.256805"><ele>61.0</ele><time>2026-04-02T12:53:34.905Z</time></trkpt><trkpt lat="43.77465" lon="11.2566967"><ele>60.99999999999999</ele><time>2026-04-02T12:53:37.905Z</time></trkpt><trkpt lat="43.7746983" lon="11.25662"><ele>61.0</ele><time>2026-04-02T12:53:41.905Z</time></trkpt><trkpt lat="43.77474" lon="11.2565233"><ele>60.99999999999999</ele><time>2026-04-02T12:53:43.906Z</time></trkpt><trkpt lat="43.774765" lon="11.256435"><ele>61.0</ele><time>2026-04-02T12:53:45.906Z</time></trkpt><trkpt lat="43.7747783" lon="11.2563433"><ele>60.99999999999999</ele><time>2026-04-02T12:53:47.906Z</time></trkpt><trkpt lat="43.77478" lon="11.2562467"><ele>60.99999999999999</ele><time>2026-04-02T12:53:50.906Z</time></trkpt><trkpt lat="43.774785" lon="11.2561517"><ele>61.0</ele><time>2026-04-02T12:53:53.906Z</time></trkpt><trkpt lat="43.7748033" lon="11.2560367"><ele>60.99999999999999</ele><time>2026-04-02T12:53:56.905Z</time></trkpt><trkpt lat="43.77485" lon="11.25596"><ele>60.99999999999999</ele><time>2026-04-02T12:54:02.905Z</time></trkpt><trkpt lat="43.7749017" lon="11.2558083"><ele>60.99999999999999</ele><time>2026-04-02T12:54:06.905Z</time></trkpt><trkpt lat="43.774955" lon="11.2557"><ele>61.0</ele><time>2026-04-02T12:54:09.906Z</time></trkpt><trkpt lat="43.77502" lon="11.2556383"><ele>61.0</ele><time>2026-04-02T12:54:15.905Z</time></trkpt><trkpt lat="43.77507" lon="11.25557"><ele>61.0</ele><time>2026-04-02T12:54:18.905Z</time></trkpt><trkpt lat="43.7751017" lon="11.255455"><ele>60.99999999999999</ele><time>2026-04-02T12:54:22.904Z</time></trkpt><trkpt lat="43.775135" lon="11.2553517"><ele>61.0</ele><time>2026-04-02T12:54:25.904Z</time></trkpt><trkpt lat="43.7751733" lon="11.2552517"><ele>61.166666666666664</ele><time>2026-04-02T12:54:28.904Z</time></trkpt><trkpt lat="43.7752167" lon="11.2551267"><ele>61.33333333333333</ele><time>2026-04-02T12:54:30.904Z</time></trkpt><trkpt lat="43.7752383" lon="11.2550367"><ele>61.5</ele><time>2026-04-02T12:54:32.904Z</time></trkpt><trkpt lat="43.77526" lon="11.25495"><ele>61.66666666666667</ele><time>2026-04-02T12:54:34.904Z</time></trkpt><trkpt lat="43.7752883" lon="11.2548317"><ele>61.833333333333336</ele><time>2026-04-02T12:54:37.904Z</time></trkpt><trkpt lat="43.7753167" lon="11.2547333"><ele>62.0</ele><time>2026-04-02T12:54:39.905Z</time></trkpt><trkpt lat="43.77534" lon="11.25464"><ele>61.16666666666667</ele><time>2026-04-02T12:54:41.905Z</time></trkpt><trkpt lat="43.7753567" lon="11.2545517"><ele>60.333333333333336</ele><time>2026-04-02T12:54:43.904Z</time></trkpt><trkpt lat="43.7753817" lon="11.25446"><ele>59.5</ele><time>2026-04-02T12:54:45.904Z</time></trkpt><trkpt lat="43.775405" lon="11.2543717"><ele>58.66666666666667</ele><time>2026-04-02T12:54:47.904Z</time></trkpt><trkpt lat="43.7754183" lon="11.2542367"><ele>57.833333333333336</ele><time>2026-04-02T12:54:49.904Z</time></trkpt><trkpt lat="43.775425" lon="11.25413"><ele>57.0</ele><time>2026-04-02T12:54:51.904Z</time></trkpt><trkpt lat="43.7754517" lon="11.2540167"><ele>56.833333333333336</ele><time>2026-04-02T12:54:54.904Z</time></trkpt><trkpt lat="43.7754833" lon="11.2539117"><ele>56.66666666666667</ele><time>2026-04-02T12:54:57.904Z</time></trkpt><trkpt lat="43.7755" lon="11.2538183"><ele>56.5</ele><time>2026-04-02T12:55:00.904Z</time></trkpt><trkpt lat="43.7754783" lon="11.25373"><ele>56.333333333333336</ele><time>2026-04-02T12:55:04.904Z</time></trkpt><trkpt lat="43.7754067" lon="11.253635"><ele>56.16666666666667</ele><time>2026-04-02T12:55:07.905Z</time></trkpt><trkpt lat="43.77535" lon="11.2535517"><ele>56.0</ele><time>2026-04-02T12:55:09.905Z</time></trkpt><trkpt lat="43.775295" lon="11.253455"><ele>56.0</ele><time>2026-04-02T12:55:11.904Z</time></trkpt><trkpt lat="43.7751533" lon="11.253275"><ele>55.99999999999999</ele><time>2026-04-02T12:55:13.904Z</time></trkpt><trkpt lat="43.7750867" lon="11.253185"><ele>55.99999999999999</ele><time>2026-04-02T12:55:16.905Z</time></trkpt><trkpt lat="43.775035" lon="11.2531117"><ele>56.0</ele><time>2026-04-02T12:55:19.904Z</time></trkpt><trkpt lat="43.7749967" lon="11.253015"><ele>56.0</ele><time>2026-04-02T12:55:23.904Z</time></trkpt><trkpt lat="43.77498" lon="11.2529233"><ele>55.833333333333336</ele><time>2026-04-02T12:55:27.904Z</time></trkpt><trkpt lat="43.7749433" lon="11.252835"><ele>55.66666666666667</ele><time>2026-04-02T12:55:31.905Z</time></trkpt><trkpt lat="43.77493" lon="11.25273"><ele>55.5</ele><time>2026-04-02T12:55:35.904Z</time></trkpt><trkpt lat="43.7748817" lon="11.2526317"><ele>55.33333333333333</ele><time>2026-04-02T12:55:37.904Z</time></trkpt><trkpt lat="43.77483" lon="11.2525633"><ele>55.166666666666664</ele><time>2026-04-02T12:55:40.905Z</time></trkpt><trkpt lat="43.77483" lon="11.2524467"><ele>55.0</ele><time>2026-04-02T12:55:43.905Z</time></trkpt><trkpt lat="43.7748283" lon="11.2523467"><ele>54.99999999999999</ele><time>2026-04-02T12:55:47.905Z</time></trkpt><trkpt lat="43.77486" lon="11.25227"><ele>55.0</ele><time>2026-04-02T12:55:51.904Z</time></trkpt><trkpt lat="43.7748917" lon="11.252145"><ele>55.0</ele><time>2026-04-02T12:55:55.905Z</time></trkpt><trkpt lat="43.7749233" lon="11.252045"><ele>55.0</ele><time>2026-04-02T12:55:58.904Z</time></trkpt><trkpt lat="43.77496" lon="11.251945"><ele>54.99999999999999</ele><time>2026-04-02T12:56:01.904Z</time></trkpt><trkpt lat="43.77494" lon="11.2518617"><ele>55.0</ele><time>2026-04-02T12:56:04.905Z</time></trkpt><trkpt lat="43.7749233" lon="11.2517567"><ele>54.99999999999999</ele><time>2026-04-02T12:56:07.904Z</time></trkpt><trkpt lat="43.7749233" lon="11.2516617"><ele>55.0</ele><time>2026-04-02T12:56:09.905Z</time></trkpt><trkpt lat="43.7749217" lon="11.2515633"><ele>55.0</ele><time>2026-04-02T12:56:11.904Z</time></trkpt><trkpt lat="43.7749367" lon="11.251475"><ele>55.0</ele><time>2026-04-02T12:56:14.904Z</time></trkpt><trkpt lat="43.7749483" lon="11.2513833"><ele>55.0</ele><time>2026-04-02T12:56:17.904Z</time></trkpt><trkpt lat="43.7749933" lon="11.25132"><ele>54.99999999999999</ele><time>2026-04-02T12:56:19.904Z</time></trkpt><trkpt lat="43.775055" lon="11.25126"><ele>55.0</ele><time>2026-04-02T12:56:26.904Z</time></trkpt><trkpt lat="43.7751083" lon="11.2512"><ele>55.166666666666664</ele><time>2026-04-02T12:56:29.904Z</time></trkpt><trkpt lat="43.7751483" lon="11.251125"><ele>55.33333333333333</ele><time>2026-04-02T12:56:32.904Z</time></trkpt><trkpt lat="43.77507" lon="11.25103"><ele>55.5</ele><time>2026-04-02T12:56:39.904Z</time></trkpt><trkpt lat="43.7750117" lon="11.2509817"><ele>55.66666666666667</ele><time>2026-04-02T12:56:40.904Z</time></trkpt><trkpt lat="43.7749217" lon="11.2509133"><ele>55.833333333333336</ele><time>2026-04-02T12:56:42.904Z</time></trkpt><trkpt lat="43.7748583" lon="11.250855"><ele>56.0</ele><time>2026-04-02T12:56:44.904Z</time></trkpt><trkpt lat="43.7748" lon="11.25081"><ele>56.00000000000001</ele><time>2026-04-02T12:56:46.904Z</time></trkpt><trkpt lat="43.7747333" lon="11.2507433"><ele>56.0</ele><time>2026-04-02T12:56:49.904Z</time></trkpt><trkpt lat="43.7746983" lon="11.2506433"><ele>56.0</ele><time>2026-04-02T12:56:51.904Z</time></trkpt><trkpt lat="43.7746517" lon="11.250525"><ele>56.0</ele><time>2026-04-02T12:56:53.905Z</time></trkpt><trkpt lat="43.774675" lon="11.25042"><ele>56.00000000000001</ele><time>2026-04-02T12:56:55.904Z</time></trkpt><trkpt lat="43.774675" lon="11.2503233"><ele>56.0</ele><time>2026-04-02T12:56:56.904Z</time></trkpt><trkpt lat="43.774675" lon="11.2502167"><ele>55.333333333333336</ele><time>2026-04-02T12:56:58.904Z</time></trkpt><trkpt lat="43.7747183" lon="11.2500883"><ele>54.66666666666667</ele><time>2026-04-02T12:57:00.904Z</time></trkpt><trkpt lat="43.77474" lon="11.2500033"><ele>54.0</ele><time>2026-04-02T12:57:02.904Z</time></trkpt><trkpt lat="43.7746917" lon="11.249945"><ele>53.33333333333333</ele><time>2026-04-02T12:57:05.904Z</time></trkpt><trkpt lat="43.774625" lon="11.2499217"><ele>52.666666666666664</ele><time>2026-04-02T12:57:09.904Z</time></trkpt><trkpt lat="43.7745583" lon="11.24999"><ele>52.0</ele><time>2026-04-02T12:57:14.904Z</time></trkpt><trkpt lat="43.77449" lon="11.25005"><ele>51.99999999999999</ele><time>2026-04-02T12:57:17.904Z</time></trkpt><trkpt lat="43.7744133" lon="11.2501"><ele>52.0</ele><time>2026-04-02T12:57:20.904Z</time></trkpt><trkpt lat="43.7743383" lon="11.2500633"><ele>52.0</ele><time>2026-04-02T12:57:22.904Z</time></trkpt><trkpt lat="43.7742483" lon="11.2500533"><ele>52.0</ele><time>2026-04-02T12:57:25.904Z</time></trkpt><trkpt lat="43.7741667" lon="11.2500117"><ele>51.99999999999999</ele><time>2026-04-02T12:57:28.904Z</time></trkpt><trkpt lat="43.774145" lon="11.2499267"><ele>52.0</ele><time>2026-04-02T12:57:30.904Z</time></trkpt><trkpt lat="43.7741233" lon="11.2498083"><ele>52.166666666666664</ele><time>2026-04-02T12:57:32.905Z</time></trkpt><trkpt lat="43.77412" lon="11.24971"><ele>52.33333333333333</ele><time>2026-04-02T12:57:34.904Z</time></trkpt><trkpt lat="43.7741167" lon="11.2495883"><ele>52.5</ele><time>2026-04-02T12:57:36.905Z</time></trkpt><trkpt lat="43.7741167" lon="11.2494867"><ele>52.66666666666667</ele><time>2026-04-02T12:57:38.904Z</time></trkpt><trkpt lat="43.7740733" lon="11.249405"><ele>52.833333333333336</ele><time>2026-04-02T12:57:40.904Z</time></trkpt><trkpt lat="43.7740233" lon="11.249345"><ele>53.0</ele><time>2026-04-02T12:57:41.904Z</time></trkpt><trkpt lat="43.773935" lon="11.249265"><ele>53.00000000000001</ele><time>2026-04-02T12:57:43.904Z</time></trkpt><trkpt lat="43.77385" lon="11.2492083"><ele>53.0</ele><time>2026-04-02T12:57:45.904Z</time></trkpt><trkpt lat="43.7737733" lon="11.2491633"><ele>53.0</ele><time>2026-04-02T12:57:47.904Z</time></trkpt><trkpt lat="43.77369" lon="11.2491233"><ele>53.0</ele><time>2026-04-02T12:57:49.904Z</time></trkpt><trkpt lat="43.7736267" lon="11.2490817"><ele>53.00000000000001</ele><time>2026-04-02T12:57:51.904Z</time></trkpt><trkpt lat="43.7735433" lon="11.2490167"><ele>53.0</ele><time>2026-04-02T12:57:54.905Z</time></trkpt><trkpt lat="43.7734683" lon="11.2489533"><ele>53.142857142857146</ele><time>2026-04-02T12:57:57.904Z</time></trkpt><trkpt lat="43.7733917" lon="11.248885"><ele>53.285714285714285</ele><time>2026-04-02T12:58:00.904Z</time></trkpt><trkpt lat="43.77333" lon="11.248865"><ele>53.42857142857143</ele><time>2026-04-02T12:58:04.905Z</time></trkpt><trkpt lat="43.7733617" lon="11.24877"><ele>53.57142857142857</ele><time>2026-04-02T12:58:10.905Z</time></trkpt><trkpt lat="43.7734267" lon="11.24875"><ele>53.71428571428571</ele><time>2026-04-02T12:58:13.904Z</time></trkpt><trkpt lat="43.7734917" lon="11.2487033"><ele>53.857142857142854</ele><time>2026-04-02T12:58:16.905Z</time></trkpt><trkpt lat="43.77353" lon="11.248625"><ele>54.0</ele><time>2026-04-02T12:58:19.905Z</time></trkpt><trkpt lat="43.7736083" lon="11.2485683"><ele>54.0</ele><time>2026-04-02T12:58:22.904Z</time></trkpt><trkpt lat="43.773675" lon="11.248515"><ele>54.0</ele><time>2026-04-02T12:58:25.904Z</time></trkpt><trkpt lat="43.7737167" lon="11.248445"><ele>54.0</ele><time>2026-04-02T12:58:31.905Z</time></trkpt><trkpt lat="43.773765" lon="11.248355"><ele>54.0</ele><time>2026-04-02T12:58:34.905Z</time></trkpt><trkpt lat="43.7738133" lon="11.2482767"><ele>54.0</ele><time>2026-04-02T12:58:37.904Z</time></trkpt><trkpt lat="43.773855" lon="11.2481983"><ele>54.0</ele><time>2026-04-02T12:58:40.904Z</time></trkpt><trkpt lat="43.7739067" lon="11.2481133"><ele>54.0</ele><time>2026-04-02T12:58:42.905Z</time></trkpt><trkpt lat="43.7739267" lon="11.2480033"><ele>54.400000000000006</ele><time>2026-04-02T12:58:44.904Z</time></trkpt><trkpt lat="43.7739183" lon="11.2477567"><ele>54.800000000000004</ele><time>2026-04-02T12:58:46.904Z</time></trkpt><trkpt lat="43.7739583" lon="11.247675"><ele>55.199999999999996</ele><time>2026-04-02T12:58:48.904Z</time></trkpt><trkpt lat="43.7740133" lon="11.2475833"><ele>55.599999999999994</ele><time>2026-04-02T12:58:51.904Z</time></trkpt><trkpt lat="43.7740767" lon="11.2475267"><ele>56.0</ele><time>2026-04-02T12:58:54.904Z</time></trkpt><trkpt lat="43.7741383" lon="11.2474683"><ele>56.00000000000001</ele><time>2026-04-02T12:58:57.905Z</time></trkpt><trkpt lat="43.77419" lon="11.247415"><ele>56.0</ele><time>2026-04-02T12:59:00.905Z</time></trkpt><trkpt lat="43.77425" lon="11.2473683"><ele>56.0</ele><time>2026-04-02T12:59:03.905Z</time></trkpt><trkpt lat="43.7742567" lon="11.2472433"><ele>56.0</ele><time>2026-04-02T12:59:15.904Z</time></trkpt><trkpt lat="43.7742167" lon="11.2471283"><ele>56.00000000000001</ele><time>2026-04-02T12:59:20.904Z</time></trkpt><trkpt lat="43.7741583" lon="11.2469683"><ele>56.0</ele><time>2026-04-02T12:59:22.905Z</time></trkpt><trkpt lat="43.7741283" lon="11.246845"><ele>55.66666666666667</ele><time>2026-04-02T12:59:24.904Z</time></trkpt><trkpt lat="43.7740833" lon="11.246755"><ele>55.333333333333336</ele><time>2026-04-02T12:59:26.904Z</time></trkpt><trkpt lat="43.7740267" lon="11.2466917"><ele>55.0</ele><time>2026-04-02T12:59:28.904Z</time></trkpt><trkpt lat="43.7739567" lon="11.2466583"><ele>54.66666666666667</ele><time>2026-04-02T12:59:30.904Z</time></trkpt><trkpt lat="43.773875" lon="11.2466283"><ele>54.333333333333336</ele><time>2026-04-02T12:59:33.905Z</time></trkpt><trkpt lat="43.7737967" lon="11.2466333"><ele>54.0</ele><time>2026-04-02T12:59:36.904Z</time></trkpt><trkpt lat="43.77376" lon="11.2465583"><ele>53.5</ele><time>2026-04-02T12:59:43.904Z</time></trkpt><trkpt lat="43.7737883" lon="11.24646"><ele>53.0</ele><time>2026-04-02T12:59:45.904Z</time></trkpt><trkpt lat="43.77382" lon="11.2463817"><ele>52.5</ele><time>2026-04-02T12:59:47.905Z</time></trkpt><trkpt lat="43.7738617" lon="11.2462533"><ele>52.0</ele><time>2026-04-02T12:59:50.904Z</time></trkpt><trkpt lat="43.7738967" lon="11.24617"><ele>51.5</ele><time>2026-04-02T12:59:52.904Z</time></trkpt><trkpt lat="43.7739283" lon="11.2460933"><ele>51.0</ele><time>2026-04-02T12:59:54.904Z</time></trkpt><trkpt lat="43.7739617" lon="11.24599"><ele>51.0</ele><time>2026-04-02T12:59:56.904Z</time></trkpt><trkpt lat="43.7739883" lon="11.2459"><ele>51.0</ele><time>2026-04-02T12:59:59.904Z</time></trkpt><trkpt lat="43.7740467" lon="11.2458417"><ele>51.0</ele><time>2026-04-02T13:00:02.904Z</time></trkpt><trkpt lat="43.7741017" lon="11.245775"><ele>51.0</ele><time>2026-04-02T13:00:05.905Z</time></trkpt><trkpt lat="43.774085" lon="11.24567"><ele>51.0</ele><time>2026-04-02T13:00:12.905Z</time></trkpt><trkpt lat="43.7740267" lon="11.2455933"><ele>51.0</ele><time>2026-04-02T13:00:14.904Z</time></trkpt><trkpt lat="43.773975" lon="11.24554"><ele>51.0</ele><time>2026-04-02T13:00:16.904Z</time></trkpt><trkpt lat="43.7739183" lon="11.2454567"><ele>50.8</ele><time>2026-04-02T13:00:18.904Z</time></trkpt><trkpt lat="43.77385" lon="11.2453617"><ele>50.599999999999994</ele><time>2026-04-02T13:00:20.905Z</time></trkpt><trkpt lat="43.77378" lon="11.24528"><ele>50.4</ele><time>2026-04-02T13:00:23.904Z</time></trkpt><trkpt lat="43.7737033" lon="11.2451817"><ele>50.2</ele><time>2026-04-02T13:00:25.904Z</time></trkpt><trkpt lat="43.7736417" lon="11.2451133"><ele>50.0</ele><time>2026-04-02T13:00:27.904Z</time></trkpt><trkpt lat="43.7735783" lon="11.245035"><ele>50.66666666666667</ele><time>2026-04-02T13:00:29.905Z</time></trkpt><trkpt lat="43.773515" lon="11.2449717"><ele>51.333333333333336</ele><time>2026-04-02T13:00:31.904Z</time></trkpt><trkpt lat="43.773455" lon="11.24491"><ele>52.0</ele><time>2026-04-02T13:00:33.904Z</time></trkpt><trkpt lat="43.77344" lon="11.2448233"><ele>52.66666666666667</ele><time>2026-04-02T13:00:35.905Z</time></trkpt><trkpt lat="43.7734483" lon="11.2447233"><ele>53.333333333333336</ele><time>2026-04-02T13:00:38.904Z</time></trkpt><trkpt lat="43.7734933" lon="11.2446533"><ele>54.0</ele><time>2026-04-02T13:00:41.904Z</time></trkpt><trkpt lat="43.7735633" lon="11.2445583"><ele>54.0</ele><time>2026-04-02T13:00:44.905Z</time></trkpt><trkpt lat="43.7736167" lon="11.244475"><ele>54.0</ele><time>2026-04-02T13:00:46.904Z</time></trkpt><trkpt lat="43.7736567" lon="11.24438"><ele>54.0</ele><time>2026-04-02T13:00:48.904Z</time></trkpt><trkpt lat="43.773715" lon="11.2443083"><ele>54.0</ele><time>2026-04-02T13:00:50.904Z</time></trkpt><trkpt lat="43.77376" lon="11.24423"><ele>54.0</ele><time>2026-04-02T13:00:52.904Z</time></trkpt><trkpt lat="43.7738083" lon="11.2441533"><ele>54.0</ele><time>2026-04-02T13:00:54.904Z</time></trkpt><trkpt lat="43.7738767" lon="11.2440617"><ele>54.0</ele><time>2026-04-02T13:00:57.904Z</time></trkpt><trkpt lat="43.77393" lon="11.243985"><ele>54.0</ele><time>2026-04-02T13:01:00.904Z</time></trkpt><trkpt lat="43.7739967" lon="11.24391"><ele>54.0</ele><time>2026-04-02T13:01:04.905Z</time></trkpt><trkpt lat="43.7740617" lon="11.2438517"><ele>54.0</ele><time>2026-04-02T13:01:08.904Z</time></trkpt><trkpt lat="43.77412" lon="11.2438133"><ele>54.0</ele><time>2026-04-02T13:01:11.903Z</time></trkpt><trkpt lat="43.774175" lon="11.2437617"><ele>54.0</ele><time>2026-04-02T13:01:14.903Z</time></trkpt><trkpt lat="43.7742617" lon="11.2437033"><ele>53.833333333333336</ele><time>2026-04-02T13:01:16.903Z</time></trkpt><trkpt lat="43.7743267" lon="11.2436383"><ele>53.66666666666667</ele><time>2026-04-02T13:01:18.904Z</time></trkpt><trkpt lat="43.7743717" lon="11.243575"><ele>53.5</ele><time>2026-04-02T13:01:21.903Z</time></trkpt><trkpt lat="43.774355" lon="11.2434517"><ele>53.333333333333336</ele><time>2026-04-02T13:01:25.903Z</time></trkpt><trkpt lat="43.7743483" lon="11.2433533"><ele>53.16666666666667</ele><time>2026-04-02T13:01:28.904Z</time></trkpt><trkpt lat="43.774365" lon="11.2432467"><ele>53.0</ele><time>2026-04-02T13:01:30.903Z</time></trkpt><trkpt lat="43.774395" lon="11.24314"><ele>52.50000000000001</ele><time>2026-04-02T13:01:32.904Z</time></trkpt><trkpt lat="43.7744467" lon="11.2430467"><ele>52.0</ele><time>2026-04-02T13:01:35.903Z</time></trkpt><trkpt lat="43.7744933" lon="11.2429417"><ele>51.5</ele><time>2026-04-02T13:01:38.903Z</time></trkpt><trkpt lat="43.7745433" lon="11.2428483"><ele>51.0</ele><time>2026-04-02T13:01:41.904Z</time></trkpt><trkpt lat="43.7745817" lon="11.2427667"><ele>50.50000000000001</ele><time>2026-04-02T13:01:43.904Z</time></trkpt><trkpt lat="43.7746367" lon="11.2426433"><ele>50.0</ele><time>2026-04-02T13:01:45.903Z</time></trkpt><trkpt lat="43.774695" lon="11.242525"><ele>50.0</ele><time>2026-04-02T13:01:47.903Z</time></trkpt><trkpt lat="43.7747583" lon="11.2424117"><ele>50.0</ele><time>2026-04-02T13:01:49.903Z</time></trkpt><trkpt lat="43.774805" lon="11.242305"><ele>50.0</ele><time>2026-04-02T13:01:51.903Z</time></trkpt><trkpt lat="43.7748683" lon="11.2422217"><ele>50.0</ele><time>2026-04-02T13:01:54.904Z</time></trkpt><trkpt lat="43.77494" lon="11.242125"><ele>50.0</ele><time>2026-04-02T13:01:56.903Z</time></trkpt><trkpt lat="43.775005" lon="11.242045"><ele>50.00000000000001</ele><time>2026-04-02T13:01:58.903Z</time></trkpt><trkpt lat="43.7750583" lon="11.2419817"><ele>50.0</ele><time>2026-04-02T13:02:00.903Z</time></trkpt><trkpt lat="43.7751133" lon="11.2419183"><ele>50.0</ele><time>2026-04-02T13:02:02.903Z</time></trkpt><trkpt lat="43.775165" lon="11.24185"><ele>50.0</ele><time>2026-04-02T13:02:04.903Z</time></trkpt><trkpt lat="43.7751583" lon="11.24176"><ele>50.0</ele><time>2026-04-02T13:02:06.904Z</time></trkpt><trkpt lat="43.7752167" lon="11.2417133"><ele>50.00000000000001</ele><time>2026-04-02T13:02:08.903Z</time></trkpt><trkpt lat="43.7752367" lon="11.2416217"><ele>50.0</ele><time>2026-04-02T13:02:11.903Z</time></trkpt><trkpt lat="43.7752317" lon="11.2415233"><ele>49.833333333333336</ele><time>2026-04-02T13:02:13.904Z</time></trkpt><trkpt lat="43.7751917" lon="11.2414083"><ele>49.66666666666667</ele><time>2026-04-02T13:02:15.904Z</time></trkpt><trkpt lat="43.77515" lon="11.2413017"><ele>49.5</ele><time>2026-04-02T13:02:17.903Z</time></trkpt><trkpt lat="43.77512" lon="11.241225"><ele>49.33333333333333</ele><time>2026-04-02T13:02:18.903Z</time></trkpt><trkpt lat="43.7751483" lon="11.2411033"><ele>49.166666666666664</ele><time>2026-04-02T13:02:20.903Z</time></trkpt><trkpt lat="43.775145" lon="11.2409867"><ele>49.0</ele><time>2026-04-02T13:02:22.904Z</time></trkpt><trkpt lat="43.7751717" lon="11.2408733"><ele>48.99999999999999</ele><time>2026-04-02T13:02:24.903Z</time></trkpt><trkpt lat="43.77519" lon="11.2407667"><ele>49.0</ele><time>2026-04-02T13:02:26.903Z</time></trkpt><trkpt lat="43.7752417" lon="11.2406667"><ele>49.0</ele><time>2026-04-02T13:02:28.903Z</time></trkpt><trkpt lat="43.7752833" lon="11.240585"><ele>49.0</ele><time>2026-04-02T13:02:30.903Z</time></trkpt><trkpt lat="43.7753167" lon="11.2404783"><ele>48.99999999999999</ele><time>2026-04-02T13:02:32.904Z</time></trkpt><trkpt lat="43.7753733" lon="11.2403733"><ele>49.0</ele><time>2026-04-02T13:02:34.903Z</time></trkpt><trkpt lat="43.7754233" lon="11.240285"><ele>49.166666666666664</ele><time>2026-04-02T13:02:35.903Z</time></trkpt><trkpt lat="43.7754483" lon="11.2401617"><ele>49.33333333333333</ele><time>2026-04-02T13:02:37.903Z</time></trkpt><trkpt lat="43.775485" lon="11.2400717"><ele>49.5</ele><time>2026-04-02T13:02:40.904Z</time></trkpt><trkpt lat="43.7755183" lon="11.2399817"><ele>49.66666666666667</ele><time>2026-04-02T13:02:42.904Z</time></trkpt><trkpt lat="43.775555" lon="11.2398917"><ele>49.833333333333336</ele><time>2026-04-02T13:02:45.903Z</time></trkpt><trkpt lat="43.7756017" lon="11.239795"><ele>50.0</ele><time>2026-04-02T13:02:47.904Z</time></trkpt><trkpt lat="43.775655" lon="11.2396867"><ele>50.50000000000001</ele><time>2026-04-02T13:02:49.904Z</time></trkpt><trkpt lat="43.77568" lon="11.2395967"><ele>51.0</ele><time>2026-04-02T13:02:51.903Z</time></trkpt><trkpt lat="43.775635" lon="11.2394933"><ele>51.5</ele><time>2026-04-02T13:02:54.903Z</time></trkpt><trkpt lat="43.775565" lon="11.23946"><ele>52.0</ele><time>2026-04-02T13:02:56.903Z</time></trkpt><trkpt lat="43.7754883" lon="11.2394233"><ele>52.50000000000001</ele><time>2026-04-02T13:02:58.903Z</time></trkpt><trkpt lat="43.7754133" lon="11.239405"><ele>53.0</ele><time>2026-04-02T13:03:00.903Z</time></trkpt><trkpt lat="43.7753283" lon="11.2393433"><ele>53.00000000000001</ele><time>2026-04-02T13:03:03.903Z</time></trkpt><trkpt lat="43.7752667" lon="11.2392933"><ele>53.0</ele><time>2026-04-02T13:03:05.903Z</time></trkpt><trkpt lat="43.7751983" lon="11.2392283"><ele>53.0</ele><time>2026-04-02T13:03:07.903Z</time></trkpt><trkpt lat="43.775135" lon="11.239185"><ele>53.0</ele><time>2026-04-02T13:03:09.903Z</time></trkpt><trkpt lat="43.7750517" lon="11.2391417"><ele>53.00000000000001</ele><time>2026-04-02T13:03:12.904Z</time></trkpt><trkpt lat="43.7749967" lon="11.2390983"><ele>53.0</ele><time>2026-04-02T13:03:14.903Z</time></trkpt><trkpt lat="43.7749833" lon="11.238975"><ele>52.833333333333336</ele><time>2026-04-02T13:03:17.903Z</time></trkpt><trkpt lat="43.7749983" lon="11.2388717"><ele>52.66666666666667</ele><time>2026-04-02T13:03:19.903Z</time></trkpt><trkpt lat="43.775005" lon="11.2387817"><ele>52.5</ele><time>2026-04-02T13:03:21.904Z</time></trkpt><trkpt lat="43.775045" lon="11.23868"><ele>52.33333333333333</ele><time>2026-04-02T13:03:23.903Z</time></trkpt><trkpt lat="43.7750867" lon="11.2385617"><ele>52.166666666666664</ele><time>2026-04-02T13:03:25.903Z</time></trkpt><trkpt lat="43.7751367" lon="11.2384633"><ele>52.0</ele><time>2026-04-02T13:03:27.903Z</time></trkpt><trkpt lat="43.7751733" lon="11.2383633"><ele>52.285714285714285</ele><time>2026-04-02T13:03:29.904Z</time></trkpt><trkpt lat="43.775205" lon="11.2382867"><ele>52.57142857142858</ele><time>2026-04-02T13:03:31.903Z</time></trkpt><trkpt lat="43.7752233" lon="11.2382"><ele>52.85714285714286</ele><time>2026-04-02T13:03:33.903Z</time></trkpt><trkpt lat="43.7752683" lon="11.2381183"><ele>53.14285714285714</ele><time>2026-04-02T13:03:36.903Z</time></trkpt><trkpt lat="43.77531" lon="11.23805"><ele>53.42857142857143</ele><time>2026-04-02T13:03:38.903Z</time></trkpt><trkpt lat="43.77536" lon="11.237965"><ele>53.714285714285715</ele><time>2026-04-02T13:03:41.904Z</time></trkpt><trkpt lat="43.7754033" lon="11.2378867"><ele>54.0</ele><time>2026-04-02T13:03:44.903Z</time></trkpt><trkpt lat="43.7754517" lon="11.2377717"><ele>54.0</ele><time>2026-04-02T13:03:47.903Z</time></trkpt><trkpt lat="43.7754867" lon="11.2376967"><ele>54.0</ele><time>2026-04-02T13:03:49.903Z</time></trkpt><trkpt lat="43.775525" lon="11.23761"><ele>54.0</ele><time>2026-04-02T13:03:51.903Z</time></trkpt><trkpt lat="43.775565" lon="11.2375033"><ele>54.0</ele><time>2026-04-02T13:03:54.903Z</time></trkpt><trkpt lat="43.77558" lon="11.2374183"><ele>54.0</ele><time>2026-04-02T13:03:57.904Z</time></trkpt><trkpt lat="43.7755767" lon="11.2373117"><ele>54.0</ele><time>2026-04-02T13:04:03.904Z</time></trkpt><trkpt lat="43.7756133" lon="11.2372267"><ele>54.0</ele><time>2026-04-02T13:04:06.903Z</time></trkpt><trkpt lat="43.7756383" lon="11.23714"><ele>52.6</ele><time>2026-04-02T13:04:08.903Z</time></trkpt><trkpt lat="43.7756883" lon="11.2370483"><ele>51.2</ele><time>2026-04-02T13:04:10.903Z</time></trkpt><trkpt lat="43.7757417" lon="11.2369467"><ele>49.800000000000004</ele><time>2026-04-02T13:04:12.903Z</time></trkpt><trkpt lat="43.7758133" lon="11.236845"><ele>48.400000000000006</ele><time>2026-04-02T13:04:14.903Z</time></trkpt><trkpt lat="43.775855" lon="11.2367267"><ele>47.0</ele><time>2026-04-02T13:04:16.903Z</time></trkpt><trkpt lat="43.77589" lon="11.2366"><ele>46.83333333333333</ele><time>2026-04-02T13:04:18.903Z</time></trkpt><trkpt lat="43.7758867" lon="11.2364467"><ele>46.666666666666664</ele><time>2026-04-02T13:04:20.904Z</time></trkpt><trkpt lat="43.7759" lon="11.2363517"><ele>46.5</ele><time>2026-04-02T13:04:23.904Z</time></trkpt><trkpt lat="43.7759183" lon="11.236245"><ele>46.333333333333336</ele><time>2026-04-02T13:04:27.904Z</time></trkpt><trkpt lat="43.7759417" lon="11.2361483"><ele>46.16666666666667</ele><time>2026-04-02T13:04:31.903Z</time></trkpt><trkpt lat="43.7759817" lon="11.2360433"><ele>46.0</ele><time>2026-04-02T13:04:34.903Z</time></trkpt><trkpt lat="43.7760183" lon="11.2359433"><ele>45.833333333333336</ele><time>2026-04-02T13:04:37.903Z</time></trkpt><trkpt lat="43.7760533" lon="11.235845"><ele>45.66666666666667</ele><time>2026-04-02T13:04:40.904Z</time></trkpt><trkpt lat="43.7760717" lon="11.23574"><ele>45.5</ele><time>2026-04-02T13:04:43.903Z</time></trkpt><trkpt lat="43.77603" lon="11.23564"><ele>45.333333333333336</ele><time>2026-04-02T13:04:47.903Z</time></trkpt><trkpt lat="43.7760283" lon="11.235525"><ele>45.166666666666664</ele><time>2026-04-02T13:04:49.903Z</time></trkpt><trkpt lat="43.77604" lon="11.23541"><ele>45.0</ele><time>2026-04-02T13:04:51.903Z</time></trkpt><trkpt lat="43.7760467" lon="11.235285"><ele>45.0</ele><time>2026-04-02T13:04:53.903Z</time></trkpt><trkpt lat="43.7760533" lon="11.2351683"><ele>45.0</ele><time>2026-04-02T13:04:55.904Z</time></trkpt><trkpt lat="43.7760417" lon="11.2350683"><ele>45.0</ele><time>2026-04-02T13:04:57.903Z</time></trkpt><trkpt lat="43.7760133" lon="11.234965"><ele>45.0</ele><time>2026-04-02T13:04:59.903Z</time></trkpt><trkpt lat="43.7759917" lon="11.2348683"><ele>45.0</ele><time>2026-04-02T13:05:01.904Z</time></trkpt><trkpt lat="43.7759717" lon="11.2347367"><ele>45.0</ele><time>2026-04-02T13:05:04.903Z</time></trkpt><trkpt lat="43.7759467" lon="11.2346367"><ele>44.833333333333336</ele><time>2026-04-02T13:05:06.903Z</time></trkpt><trkpt lat="43.7759217" lon="11.2345517"><ele>44.666666666666664</ele><time>2026-04-02T13:05:08.903Z</time></trkpt><trkpt lat="43.77591" lon="11.2344167"><ele>44.5</ele><time>2026-04-02T13:05:11.903Z</time></trkpt><trkpt lat="43.775915" lon="11.2343033"><ele>44.33333333333333</ele><time>2026-04-02T13:05:13.903Z</time></trkpt><trkpt lat="43.7759217" lon="11.234165"><ele>44.166666666666664</ele><time>2026-04-02T13:05:15.903Z</time></trkpt><trkpt lat="43.775935" lon="11.23403"><ele>44.0</ele><time>2026-04-02T13:05:17.903Z</time></trkpt><trkpt lat="43.7759483" lon="11.233875"><ele>43.800000000000004</ele><time>2026-04-02T13:05:19.903Z</time></trkpt><trkpt lat="43.775965" lon="11.2337133"><ele>43.6</ele><time>2026-04-02T13:05:21.903Z</time></trkpt><trkpt lat="43.775985" lon="11.2335783"><ele>43.4</ele><time>2026-04-02T13:05:23.903Z</time></trkpt><trkpt lat="43.7759967" lon="11.2334583"><ele>43.2</ele><time>2026-04-02T13:05:25.903Z</time></trkpt><trkpt lat="43.77602" lon="11.2333367"><ele>43.0</ele><time>2026-04-02T13:05:27.904Z</time></trkpt><trkpt lat="43.7760467" lon="11.233235"><ele>44.4</ele><time>2026-04-02T13:05:29.903Z</time></trkpt><trkpt lat="43.7760933" lon="11.2330983"><ele>45.8</ele><time>2026-04-02T13:05:31.903Z</time></trkpt><trkpt lat="43.7761517" lon="11.23296"><ele>47.2</ele><time>2026-04-02T13:05:33.903Z</time></trkpt><trkpt lat="43.776195" lon="11.2328767"><ele>48.6</ele><time>2026-04-02T13:05:35.903Z</time></trkpt><trkpt lat="43.7762183" lon="11.2327917"><ele>50.0</ele><time>2026-04-02T13:05:36.903Z</time></trkpt><trkpt lat="43.7762533" lon="11.232665"><ele>50.0</ele><time>2026-04-02T13:05:38.904Z</time></trkpt><trkpt lat="43.7762683" lon="11.232575"><ele>50.0</ele><time>2026-04-02T13:05:39.903Z</time></trkpt><trkpt lat="43.7762967" lon="11.2324467"><ele>50.0</ele><time>2026-04-02T13:05:41.903Z</time></trkpt><trkpt lat="43.776325" lon="11.232305"><ele>50.0</ele><time>2026-04-02T13:05:43.903Z</time></trkpt><trkpt lat="43.77637" lon="11.2321567"><ele>50.0</ele><time>2026-04-02T13:05:45.903Z</time></trkpt><trkpt lat="43.7764167" lon="11.23202"><ele>49.6</ele><time>2026-04-02T13:05:47.903Z</time></trkpt><trkpt lat="43.7764583" lon="11.23187"><ele>49.2</ele><time>2026-04-02T13:05:49.903Z</time></trkpt><trkpt lat="43.7764933" lon="11.2317117"><ele>48.8</ele><time>2026-04-02T13:05:51.903Z</time></trkpt><trkpt lat="43.7765117" lon="11.2316233"><ele>48.4</ele><time>2026-04-02T13:05:52.903Z</time></trkpt><trkpt lat="43.7765433" lon="11.2314583"><ele>48.0</ele><time>2026-04-02T13:05:54.903Z</time></trkpt><trkpt lat="43.7765783" lon="11.231325"><ele>47.2</ele><time>2026-04-02T13:05:56.903Z</time></trkpt><trkpt lat="43.7766117" lon="11.2312133"><ele>46.4</ele><time>2026-04-02T13:05:58.903Z</time></trkpt><trkpt lat="43.7766517" lon="11.2310783"><ele>45.6</ele><time>2026-04-02T13:06:00.904Z</time></trkpt><trkpt lat="43.77669" lon="11.2309533"><ele>44.800000000000004</ele><time>2026-04-02T13:06:02.904Z</time></trkpt><trkpt lat="43.7767317" lon="11.2308117"><ele>44.0</ele><time>2026-04-02T13:06:04.903Z</time></trkpt><trkpt lat="43.7767733" lon="11.2306633"><ele>43.800000000000004</ele><time>2026-04-02T13:06:06.903Z</time></trkpt><trkpt lat="43.7768117" lon="11.23051"><ele>43.6</ele><time>2026-04-02T13:06:08.903Z</time></trkpt><trkpt lat="43.776855" lon="11.2303567"><ele>43.4</ele><time>2026-04-02T13:06:10.903Z</time></trkpt><trkpt lat="43.7768767" lon="11.230225"><ele>43.2</ele><time>2026-04-02T13:06:12.903Z</time></trkpt><trkpt lat="43.776885" lon="11.2301"><ele>43.0</ele><time>2026-04-02T13:06:14.902Z</time></trkpt><trkpt lat="43.7768867" lon="11.2299817"><ele>42.85714285714286</ele><time>2026-04-02T13:06:16.903Z</time></trkpt><trkpt lat="43.7768817" lon="11.22989"><ele>42.714285714285715</ele><time>2026-04-02T13:06:18.903Z</time></trkpt><trkpt lat="43.7768433" lon="11.22979"><ele>42.57142857142857</ele><time>2026-04-02T13:06:21.902Z</time></trkpt><trkpt lat="43.776785" lon="11.2297383"><ele>42.42857142857143</ele><time>2026-04-02T13:06:23.902Z</time></trkpt><trkpt lat="43.7767133" lon="11.22968"><ele>42.285714285714285</ele><time>2026-04-02T13:06:26.903Z</time></trkpt><trkpt lat="43.7766533" lon="11.2296267"><ele>42.142857142857146</ele><time>2026-04-02T13:06:29.903Z</time></trkpt><trkpt lat="43.7765933" lon="11.2295783"><ele>42.0</ele><time>2026-04-02T13:06:32.902Z</time></trkpt><trkpt lat="43.7765333" lon="11.22952"><ele>42.0</ele><time>2026-04-02T13:06:35.902Z</time></trkpt><trkpt lat="43.776465" lon="11.2294683"><ele>42.0</ele><time>2026-04-02T13:06:38.902Z</time></trkpt><trkpt lat="43.7763933" lon="11.22942"><ele>42.0</ele><time>2026-04-02T13:06:41.903Z</time></trkpt><trkpt lat="43.7763383" lon="11.22937"><ele>42.0</ele><time>2026-04-02T13:06:43.902Z</time></trkpt><trkpt lat="43.7762767" lon="11.2293267"><ele>42.0</ele><time>2026-04-02T13:06:45.903Z</time></trkpt><trkpt lat="43.776215" lon="11.229285"><ele>42.0</ele><time>2026-04-02T13:06:47.903Z</time></trkpt><trkpt lat="43.7761583" lon="11.229245"><ele>42.0</ele><time>2026-04-02T13:06:49.903Z</time></trkpt><trkpt lat="43.77609" lon="11.2291833"><ele>42.0</ele><time>2026-04-02T13:06:51.902Z</time></trkpt><trkpt lat="43.7760217" lon="11.229135"><ele>42.0</ele><time>2026-04-02T13:06:53.903Z</time></trkpt><trkpt lat="43.77594" lon="11.229065"><ele>42.0</ele><time>2026-04-02T13:06:55.903Z</time></trkpt><trkpt lat="43.7758717" lon="11.22895"><ele>42.0</ele><time>2026-04-02T13:06:57.903Z</time></trkpt><trkpt lat="43.7758817" lon="11.2288617"><ele>42.0</ele><time>2026-04-02T13:06:58.902Z</time></trkpt><trkpt lat="43.7758967" lon="11.2287767"><ele>42.0</ele><time>2026-04-02T13:06:59.902Z</time></trkpt><trkpt lat="43.7759383" lon="11.2286317"><ele>42.166666666666664</ele><time>2026-04-02T13:07:01.902Z</time></trkpt><trkpt lat="43.7759583" lon="11.2285433"><ele>42.333333333333336</ele><time>2026-04-02T13:07:02.902Z</time></trkpt><trkpt lat="43.77598" lon="11.22846"><ele>42.5</ele><time>2026-04-02T13:07:03.903Z</time></trkpt><trkpt lat="43.7760017" lon="11.228375"><ele>42.66666666666667</ele><time>2026-04-02T13:07:04.902Z</time></trkpt><trkpt lat="43.77601" lon="11.228285"><ele>42.833333333333336</ele><time>2026-04-02T13:07:05.903Z</time></trkpt><trkpt lat="43.7760567" lon="11.2281317"><ele>43.0</ele><time>2026-04-02T13:07:07.902Z</time></trkpt><trkpt lat="43.7761017" lon="11.228005"><ele>43.0</ele><time>2026-04-02T13:07:09.902Z</time></trkpt><trkpt lat="43.7761383" lon="11.2278733"><ele>43.0</ele><time>2026-04-02T13:07:11.902Z</time></trkpt><trkpt lat="43.776175" lon="11.22774"><ele>43.0</ele><time>2026-04-02T13:07:13.902Z</time></trkpt><trkpt lat="43.776225" lon="11.2276133"><ele>43.0</ele><time>2026-04-02T13:07:15.903Z</time></trkpt><trkpt lat="43.7762717" lon="11.22749"><ele>43.0</ele><time>2026-04-02T13:07:17.902Z</time></trkpt><trkpt lat="43.7763083" lon="11.2273717"><ele>42.833333333333336</ele><time>2026-04-02T13:07:19.903Z</time></trkpt><trkpt lat="43.7763433" lon="11.2272583"><ele>42.66666666666667</ele><time>2026-04-02T13:07:21.902Z</time></trkpt><trkpt lat="43.7763833" lon="11.22714"><ele>42.5</ele><time>2026-04-02T13:07:23.902Z</time></trkpt><trkpt lat="43.7764133" lon="11.2270283"><ele>42.333333333333336</ele><time>2026-04-02T13:07:25.903Z</time></trkpt><trkpt lat="43.77645" lon="11.2269133"><ele>42.166666666666664</ele><time>2026-04-02T13:07:27.903Z</time></trkpt><trkpt lat="43.7764783" lon="11.2267983"><ele>42.0</ele><time>2026-04-02T13:07:29.902Z</time></trkpt><trkpt lat="43.7765167" lon="11.2266867"><ele>42.0</ele><time>2026-04-02T13:07:31.902Z</time></trkpt><trkpt lat="43.776555" lon="11.2265767"><ele>42.0</ele><time>2026-04-02T13:07:33.902Z</time></trkpt><trkpt lat="43.77659" lon="11.2264833"><ele>42.0</ele><time>2026-04-02T13:07:35.903Z</time></trkpt><trkpt lat="43.77661" lon="11.2264"><ele>42.0</ele><time>2026-04-02T13:07:37.903Z</time></trkpt><trkpt lat="43.7766317" lon="11.22631"><ele>42.0</ele><time>2026-04-02T13:07:39.903Z</time></trkpt><trkpt lat="43.776655" lon="11.226215"><ele>42.0</ele><time>2026-04-02T13:07:41.902Z</time></trkpt><trkpt lat="43.7767017" lon="11.22611"><ele>42.0</ele><time>2026-04-02T13:07:43.903Z</time></trkpt><trkpt lat="43.7767217" lon="11.226015"><ele>42.0</ele><time>2026-04-02T13:07:45.902Z</time></trkpt><trkpt lat="43.77675" lon="11.225885"><ele>42.0</ele><time>2026-04-02T13:07:48.902Z</time></trkpt><trkpt lat="43.7767867" lon="11.2257783"><ele>42.0</ele><time>2026-04-02T13:07:51.902Z</time></trkpt><trkpt lat="43.7768183" lon="11.2256483"><ele>42.0</ele><time>2026-04-02T13:07:54.902Z</time></trkpt><trkpt lat="43.7768517" lon="11.2255567"><ele>42.0</ele><time>2026-04-02T13:07:56.902Z</time></trkpt><trkpt lat="43.7768917" lon="11.22546"><ele>42.0</ele><time>2026-04-02T13:07:58.902Z</time></trkpt><trkpt lat="43.7769167" lon="11.2253717"><ele>42.0</ele><time>2026-04-02T13:08:00.902Z</time></trkpt><trkpt lat="43.77694" lon="11.22527"><ele>42.0</ele><time>2026-04-02T13:08:02.902Z</time></trkpt><trkpt lat="43.7769767" lon="11.2251617"><ele>42.0</ele><time>2026-04-02T13:08:04.903Z</time></trkpt><trkpt lat="43.7770283" lon="11.22504"><ele>42.0</ele><time>2026-04-02T13:08:06.903Z</time></trkpt><trkpt lat="43.777075" lon="11.2249283"><ele>42.0</ele><time>2026-04-02T13:08:08.903Z</time></trkpt><trkpt lat="43.7771183" lon="11.2248117"><ele>41.5</ele><time>2026-04-02T13:08:10.903Z</time></trkpt><trkpt lat="43.7771583" lon="11.2246983"><ele>41.0</ele><time>2026-04-02T13:08:12.902Z</time></trkpt><trkpt lat="43.7771933" lon="11.2245767"><ele>40.5</ele><time>2026-04-02T13:08:14.902Z</time></trkpt><trkpt lat="43.777225" lon="11.2244633"><ele>40.0</ele><time>2026-04-02T13:08:16.902Z</time></trkpt><trkpt lat="43.77724" lon="11.2243617"><ele>39.5</ele><time>2026-04-02T13:08:18.903Z</time></trkpt><trkpt lat="43.7772533" lon="11.22426"><ele>39.0</ele><time>2026-04-02T13:08:20.903Z</time></trkpt><trkpt lat="43.7772783" lon="11.2241517"><ele>39.0</ele><time>2026-04-02T13:08:22.902Z</time></trkpt><trkpt lat="43.77731" lon="11.2240517"><ele>39.0</ele><time>2026-04-02T13:08:24.902Z</time></trkpt><trkpt lat="43.7773483" lon="11.223945"><ele>39.0</ele><time>2026-04-02T13:08:26.903Z</time></trkpt><trkpt lat="43.777375" lon="11.2238317"><ele>39.0</ele><time>2026-04-02T13:08:28.902Z</time></trkpt><trkpt lat="43.7773983" lon="11.2237333"><ele>39.0</ele><time>2026-04-02T13:08:30.903Z</time></trkpt><trkpt lat="43.7774367" lon="11.223625"><ele>39.0</ele><time>2026-04-02T13:08:32.902Z</time></trkpt><trkpt lat="43.7774717" lon="11.22351"><ele>39.666666666666664</ele><time>2026-04-02T13:08:34.902Z</time></trkpt><trkpt lat="43.77751" lon="11.2233933"><ele>40.333333333333336</ele><time>2026-04-02T13:08:36.902Z</time></trkpt><trkpt lat="43.77755" lon="11.2232817"><ele>41.0</ele><time>2026-04-02T13:08:38.902Z</time></trkpt><trkpt lat="43.7775933" lon="11.2231633"><ele>41.66666666666667</ele><time>2026-04-02T13:08:40.902Z</time></trkpt><trkpt lat="43.7776283" lon="11.2230567"><ele>42.333333333333336</ele><time>2026-04-02T13:08:42.902Z</time></trkpt><trkpt lat="43.777655" lon="11.2229567"><ele>43.0</ele><time>2026-04-02T13:08:44.902Z</time></trkpt><trkpt lat="43.777665" lon="11.2228417"><ele>43.5</ele><time>2026-04-02T13:08:46.902Z</time></trkpt><trkpt lat="43.7776717" lon="11.222745"><ele>44.0</ele><time>2026-04-02T13:08:48.902Z</time></trkpt><trkpt lat="43.7777217" lon="11.2226283"><ele>44.5</ele><time>2026-04-02T13:08:50.902Z</time></trkpt><trkpt lat="43.777765" lon="11.2225317"><ele>45.0</ele><time>2026-04-02T13:08:52.902Z</time></trkpt><trkpt lat="43.777795" lon="11.2224133"><ele>45.5</ele><time>2026-04-02T13:08:55.902Z</time></trkpt><trkpt lat="43.777835" lon="11.2222983"><ele>46.0</ele><time>2026-04-02T13:08:57.903Z</time></trkpt><trkpt lat="43.7778717" lon="11.2221867"><ele>46.0</ele><time>2026-04-02T13:08:59.903Z</time></trkpt><trkpt lat="43.777905" lon="11.2220617"><ele>46.0</ele><time>2026-04-02T13:09:02.902Z</time></trkpt><trkpt lat="43.7779133" lon="11.221975"><ele>46.0</ele><time>2026-04-02T13:09:04.902Z</time></trkpt><trkpt lat="43.7779367" lon="11.22187"><ele>46.0</ele><time>2026-04-02T13:09:06.902Z</time></trkpt><trkpt lat="43.7779617" lon="11.2217633"><ele>46.0</ele><time>2026-04-02T13:09:08.902Z</time></trkpt><trkpt lat="43.7779983" lon="11.2216483"><ele>46.0</ele><time>2026-04-02T13:09:10.902Z</time></trkpt><trkpt lat="43.7780467" lon="11.2215167"><ele>46.0</ele><time>2026-04-02T13:09:12.902Z</time></trkpt><trkpt lat="43.77809" lon="11.2213833"><ele>46.0</ele><time>2026-04-02T13:09:14.902Z</time></trkpt><trkpt lat="43.7781217" lon="11.2212983"><ele>46.0</ele><time>2026-04-02T13:09:15.902Z</time></trkpt><trkpt lat="43.778165" lon="11.2211567"><ele>46.0</ele><time>2026-04-02T13:09:17.902Z</time></trkpt><trkpt lat="43.77822" lon="11.22102"><ele>46.0</ele><time>2026-04-02T13:09:19.902Z</time></trkpt><trkpt lat="43.77826" lon="11.2209"><ele>46.0</ele><time>2026-04-02T13:09:21.903Z</time></trkpt><trkpt lat="43.7782933" lon="11.22081"><ele>46.0</ele><time>2026-04-02T13:09:23.903Z</time></trkpt><trkpt lat="43.7783083" lon="11.2207233"><ele>46.0</ele><time>2026-04-02T13:09:25.902Z</time></trkpt><trkpt lat="43.778345" lon="11.2206083"><ele>46.0</ele><time>2026-04-02T13:09:27.902Z</time></trkpt><trkpt lat="43.7783783" lon="11.2204933"><ele>46.0</ele><time>2026-04-02T13:09:29.902Z</time></trkpt><trkpt lat="43.7784117" lon="11.2203717"><ele>46.0</ele><time>2026-04-02T13:09:31.902Z</time></trkpt><trkpt lat="43.7784583" lon="11.2202333"><ele>45.199999999999996</ele><time>2026-04-02T13:09:33.902Z</time></trkpt><trkpt lat="43.77853" lon="11.220095"><ele>44.4</ele><time>2026-04-02T13:09:35.903Z</time></trkpt><trkpt lat="43.7785983" lon="11.21996"><ele>43.6</ele><time>2026-04-02T13:09:37.902Z</time></trkpt><trkpt lat="43.778645" lon="11.2198467"><ele>42.8</ele><time>2026-04-02T13:09:39.902Z</time></trkpt><trkpt lat="43.7786883" lon="11.2197317"><ele>42.0</ele><time>2026-04-02T13:09:41.902Z</time></trkpt><trkpt lat="43.778745" lon="11.219605"><ele>41.8</ele><time>2026-04-02T13:09:43.903Z</time></trkpt><trkpt lat="43.7787867" lon="11.2194917"><ele>41.6</ele><time>2026-04-02T13:09:45.902Z</time></trkpt><trkpt lat="43.7788317" lon="11.2193783"><ele>41.4</ele><time>2026-04-02T13:09:47.903Z</time></trkpt><trkpt lat="43.778875" lon="11.21927"><ele>41.199999999999996</ele><time>2026-04-02T13:09:49.902Z</time></trkpt><trkpt lat="43.7789283" lon="11.2191517"><ele>41.0</ele><time>2026-04-02T13:09:51.902Z</time></trkpt><trkpt lat="43.7789817" lon="11.21903"><ele>41.199999999999996</ele><time>2026-04-02T13:09:53.902Z</time></trkpt><trkpt lat="43.7790317" lon="11.218915"><ele>41.4</ele><time>2026-04-02T13:09:55.902Z</time></trkpt><trkpt lat="43.7790967" lon="11.2188067"><ele>41.6</ele><time>2026-04-02T13:09:57.902Z</time></trkpt><trkpt lat="43.7791783" lon="11.2187117"><ele>41.8</ele><time>2026-04-02T13:09:59.902Z</time></trkpt><trkpt lat="43.7792533" lon="11.21858"><ele>42.0</ele><time>2026-04-02T13:10:01.902Z</time></trkpt><trkpt lat="43.7793117" lon="11.2184517"><ele>42.0</ele><time>2026-04-02T13:10:03.902Z</time></trkpt><trkpt lat="43.77935" lon="11.2183517"><ele>42.0</ele><time>2026-04-02T13:10:05.902Z</time></trkpt><trkpt lat="43.7793933" lon="11.2182317"><ele>42.0</ele><time>2026-04-02T13:10:07.902Z</time></trkpt><trkpt lat="43.779445" lon="11.218095"><ele>42.0</ele><time>2026-04-02T13:10:09.903Z</time></trkpt><trkpt lat="43.7794617" lon="11.217975"><ele>42.0</ele><time>2026-04-02T13:10:11.902Z</time></trkpt><trkpt lat="43.77948" lon="11.2178733"><ele>41.833333333333336</ele><time>2026-04-02T13:10:13.903Z</time></trkpt><trkpt lat="43.7795233" lon="11.21778"><ele>41.666666666666664</ele><time>2026-04-02T13:10:15.902Z</time></trkpt><trkpt lat="43.7795567" lon="11.2176983"><ele>41.5</ele><time>2026-04-02T13:10:17.902Z</time></trkpt><trkpt lat="43.77959" lon="11.2175983"><ele>41.33333333333333</ele><time>2026-04-02T13:10:19.903Z</time></trkpt><trkpt lat="43.7796117" lon="11.2175017"><ele>41.166666666666664</ele><time>2026-04-02T13:10:21.902Z</time></trkpt><trkpt lat="43.7796417" lon="11.2173933"><ele>41.0</ele><time>2026-04-02T13:10:23.902Z</time></trkpt><trkpt lat="43.779685" lon="11.217295"><ele>41.0</ele><time>2026-04-02T13:10:25.903Z</time></trkpt><trkpt lat="43.779705" lon="11.2172017"><ele>41.0</ele><time>2026-04-02T13:10:27.902Z</time></trkpt><trkpt lat="43.7797383" lon="11.21707"><ele>41.0</ele><time>2026-04-02T13:10:30.902Z</time></trkpt><trkpt lat="43.7797733" lon="11.2169783"><ele>41.0</ele><time>2026-04-02T13:10:32.901Z</time></trkpt><trkpt lat="43.7798067" lon="11.2168883"><ele>41.0</ele><time>2026-04-02T13:10:34.901Z</time></trkpt><trkpt lat="43.77985" lon="11.2167817"><ele>41.0</ele><time>2026-04-02T13:10:36.901Z</time></trkpt><trkpt lat="43.77988" lon="11.2166683"><ele>41.0</ele><time>2026-04-02T13:10:38.901Z</time></trkpt><trkpt lat="43.7799117" lon="11.2165917"><ele>41.0</ele><time>2026-04-02T13:10:40.901Z</time></trkpt><trkpt lat="43.7799533" lon="11.2164817"><ele>41.0</ele><time>2026-04-02T13:10:42.901Z</time></trkpt><trkpt lat="43.7799867" lon="11.21639"><ele>41.0</ele><time>2026-04-02T13:10:44.901Z</time></trkpt><trkpt lat="43.7800167" lon="11.21629"><ele>41.0</ele><time>2026-04-02T13:10:46.901Z</time></trkpt><trkpt lat="43.78005" lon="11.2162017"><ele>41.0</ele><time>2026-04-02T13:10:48.901Z</time></trkpt><trkpt lat="43.7800967" lon="11.21609"><ele>41.4</ele><time>2026-04-02T13:10:50.902Z</time></trkpt><trkpt lat="43.7801517" lon="11.2159667"><ele>41.8</ele><time>2026-04-02T13:10:52.901Z</time></trkpt><trkpt lat="43.7801983" lon="11.215855"><ele>42.199999999999996</ele><time>2026-04-02T13:10:54.902Z</time></trkpt><trkpt lat="43.78023" lon="11.21575"><ele>42.599999999999994</ele><time>2026-04-02T13:10:56.901Z</time></trkpt><trkpt lat="43.7802733" lon="11.2156417"><ele>43.0</ele><time>2026-04-02T13:10:58.901Z</time></trkpt><trkpt lat="43.780315" lon="11.2155267"><ele>42.199999999999996</ele><time>2026-04-02T13:11:00.901Z</time></trkpt><trkpt lat="43.7803433" lon="11.2154283"><ele>41.4</ele><time>2026-04-02T13:11:02.902Z</time></trkpt><trkpt lat="43.780385" lon="11.215325"><ele>40.599999999999994</ele><time>2026-04-02T13:11:04.901Z</time></trkpt><trkpt lat="43.78046" lon="11.215185"><ele>39.8</ele><time>2026-04-02T13:11:06.901Z</time></trkpt><trkpt lat="43.7805167" lon="11.2150367"><ele>39.0</ele><time>2026-04-02T13:11:08.901Z</time></trkpt><trkpt lat="43.7805567" lon="11.21491"><ele>39.2</ele><time>2026-04-02T13:11:10.901Z</time></trkpt><trkpt lat="43.7806167" lon="11.2147767"><ele>39.4</ele><time>2026-04-02T13:11:12.901Z</time></trkpt><trkpt lat="43.7806933" lon="11.2146467"><ele>39.6</ele><time>2026-04-02T13:11:14.901Z</time></trkpt><trkpt lat="43.7807717" lon="11.2145083"><ele>39.8</ele><time>2026-04-02T13:11:16.901Z</time></trkpt><trkpt lat="43.7808167" lon="11.2144383"><ele>40.0</ele><time>2026-04-02T13:11:17.901Z</time></trkpt><trkpt lat="43.7808917" lon="11.214325"><ele>40.0</ele><time>2026-04-02T13:11:19.901Z</time></trkpt><trkpt lat="43.780945" lon="11.2142133"><ele>40.0</ele><time>2026-04-02T13:11:21.901Z</time></trkpt><trkpt lat="43.78101" lon="11.2141033"><ele>40.0</ele><time>2026-04-02T13:11:23.901Z</time></trkpt><trkpt lat="43.7810783" lon="11.21399"><ele>40.0</ele><time>2026-04-02T13:11:25.901Z</time></trkpt><trkpt lat="43.7811367" lon="11.2139033"><ele>40.0</ele><time>2026-04-02T13:11:27.901Z</time></trkpt><trkpt lat="43.7811933" lon="11.2138167"><ele>39.333333333333336</ele><time>2026-04-02T13:11:29.901Z</time></trkpt><trkpt lat="43.7812417" lon="11.21373"><ele>38.66666666666667</ele><time>2026-04-02T13:11:31.901Z</time></trkpt><trkpt lat="43.7812817" lon="11.2136433"><ele>38.0</ele><time>2026-04-02T13:11:33.901Z</time></trkpt><trkpt lat="43.7813333" lon="11.2135283"><ele>37.333333333333336</ele><time>2026-04-02T13:11:35.902Z</time></trkpt><trkpt lat="43.7813733" lon="11.2134283"><ele>36.666666666666664</ele><time>2026-04-02T13:11:37.901Z</time></trkpt><trkpt lat="43.7814067" lon="11.213325"><ele>36.0</ele><time>2026-04-02T13:11:39.901Z</time></trkpt><trkpt lat="43.7814583" lon="11.21322"><ele>36.42857142857143</ele><time>2026-04-02T13:11:41.901Z</time></trkpt><trkpt lat="43.7814983" lon="11.21313"><ele>36.85714285714286</ele><time>2026-04-02T13:11:43.901Z</time></trkpt><trkpt lat="43.7815417" lon="11.2130483"><ele>37.28571428571429</ele><time>2026-04-02T13:11:45.902Z</time></trkpt><trkpt lat="43.781585" lon="11.2129783"><ele>37.714285714285715</ele><time>2026-04-02T13:11:47.901Z</time></trkpt><trkpt lat="43.78163" lon="11.2129067"><ele>38.14285714285714</ele><time>2026-04-02T13:11:49.901Z</time></trkpt><trkpt lat="43.7816717" lon="11.21284"><ele>38.57142857142858</ele><time>2026-04-02T13:11:51.901Z</time></trkpt><trkpt lat="43.7817167" lon="11.2127667"><ele>39.0</ele><time>2026-04-02T13:11:53.901Z</time></trkpt><trkpt lat="43.78176" lon="11.2127"><ele>39.0</ele><time>2026-04-02T13:11:56.901Z</time></trkpt><trkpt lat="43.7818033" lon="11.21263"><ele>39.0</ele><time>2026-04-02T13:11:58.901Z</time></trkpt><trkpt lat="43.78185" lon="11.2125517"><ele>39.0</ele><time>2026-04-02T13:12:00.901Z</time></trkpt><trkpt lat="43.7818983" lon="11.2124533"><ele>39.0</ele><time>2026-04-02T13:12:02.901Z</time></trkpt><trkpt lat="43.7819233" lon="11.21233"><ele>39.0</ele><time>2026-04-02T13:12:04.901Z</time></trkpt><trkpt lat="43.781955" lon="11.2122033"><ele>39.0</ele><time>2026-04-02T13:12:06.901Z</time></trkpt><trkpt lat="43.781985" lon="11.212095"><ele>38.666666666666664</ele><time>2026-04-02T13:12:08.902Z</time></trkpt><trkpt lat="43.7820083" lon="11.2120117"><ele>38.333333333333336</ele><time>2026-04-02T13:12:10.901Z</time></trkpt><trkpt lat="43.7820783" lon="11.2119017"><ele>38.0</ele><time>2026-04-02T13:12:12.901Z</time></trkpt><trkpt lat="43.7821383" lon="11.2117967"><ele>37.66666666666667</ele><time>2026-04-02T13:12:14.901Z</time></trkpt><trkpt lat="43.78219" lon="11.2116983"><ele>37.333333333333336</ele><time>2026-04-02T13:12:16.901Z</time></trkpt><trkpt lat="43.7822383" lon="11.211595"><ele>37.0</ele><time>2026-04-02T13:12:18.901Z</time></trkpt><trkpt lat="43.78228" lon="11.211475"><ele>37.0</ele><time>2026-04-02T13:12:20.902Z</time></trkpt><trkpt lat="43.7823167" lon="11.2113467"><ele>37.0</ele><time>2026-04-02T13:12:22.902Z</time></trkpt><trkpt lat="43.7823667" lon="11.2112267"><ele>37.0</ele><time>2026-04-02T13:12:24.901Z</time></trkpt><trkpt lat="43.7824167" lon="11.2111117"><ele>37.0</ele><time>2026-04-02T13:12:26.902Z</time></trkpt><trkpt lat="43.7824433" lon="11.211005"><ele>37.0</ele><time>2026-04-02T13:12:28.901Z</time></trkpt><trkpt lat="43.7824767" lon="11.2109183"><ele>37.0</ele><time>2026-04-02T13:12:30.901Z</time></trkpt><trkpt lat="43.7825267" lon="11.21079"><ele>37.0</ele><time>2026-04-02T13:12:33.901Z</time></trkpt><trkpt lat="43.782575" lon="11.2106967"><ele>37.0</ele><time>2026-04-02T13:12:35.902Z</time></trkpt><trkpt lat="43.782635" lon="11.2105967"><ele>37.0</ele><time>2026-04-02T13:12:37.901Z</time></trkpt><trkpt lat="43.7826967" lon="11.2104867"><ele>37.0</ele><time>2026-04-02T13:12:39.901Z</time></trkpt><trkpt lat="43.7827517" lon="11.2103733"><ele>37.0</ele><time>2026-04-02T13:12:41.902Z</time></trkpt><trkpt lat="43.7827917" lon="11.2102667"><ele>36.6</ele><time>2026-04-02T13:12:43.901Z</time></trkpt><trkpt lat="43.78285" lon="11.21015"><ele>36.2</ele><time>2026-04-02T13:12:45.901Z</time></trkpt><trkpt lat="43.7828983" lon="11.21001"><ele>35.8</ele><time>2026-04-02T13:12:47.902Z</time></trkpt><trkpt lat="43.7829583" lon="11.2098967"><ele>35.4</ele><time>2026-04-02T13:12:49.901Z</time></trkpt><trkpt lat="43.783035" lon="11.2097883"><ele>35.0</ele><time>2026-04-02T13:12:51.901Z</time></trkpt><trkpt lat="43.7831117" lon="11.2096883"><ele>35.8</ele><time>2026-04-02T13:12:53.902Z</time></trkpt><trkpt lat="43.7831617" lon="11.2095667"><ele>36.6</ele><time>2026-04-02T13:12:55.901Z</time></trkpt><trkpt lat="43.7832183" lon="11.209465"><ele>37.4</ele><time>2026-04-02T13:12:57.901Z</time></trkpt><trkpt lat="43.7832617" lon="11.2093467"><ele>38.2</ele><time>2026-04-02T13:12:59.901Z</time></trkpt><trkpt lat="43.783295" lon="11.209215"><ele>39.0</ele><time>2026-04-02T13:13:01.901Z</time></trkpt><trkpt lat="43.7833283" lon="11.20908"><ele>39.4</ele><time>2026-04-02T13:13:03.901Z</time></trkpt><trkpt lat="43.7833683" lon="11.2089233"><ele>39.8</ele><time>2026-04-02T13:13:05.902Z</time></trkpt><trkpt lat="43.783405" lon="11.208795"><ele>40.199999999999996</ele><time>2026-04-02T13:13:07.902Z</time></trkpt><trkpt lat="43.7834567" lon="11.2086817"><ele>40.599999999999994</ele><time>2026-04-02T13:13:09.901Z</time></trkpt><trkpt lat="43.7835033" lon="11.2085967"><ele>41.0</ele><time>2026-04-02T13:13:11.901Z</time></trkpt><trkpt lat="43.7835583" lon="11.20848"><ele>40.5</ele><time>2026-04-02T13:13:13.902Z</time></trkpt><trkpt lat="43.7835917" lon="11.2083833"><ele>40.0</ele><time>2026-04-02T13:13:15.901Z</time></trkpt><trkpt lat="43.7836167" lon="11.208285"><ele>39.5</ele><time>2026-04-02T13:13:17.901Z</time></trkpt><trkpt lat="43.7836383" lon="11.2081933"><ele>39.0</ele><time>2026-04-02T13:13:19.901Z</time></trkpt><trkpt lat="43.7836783" lon="11.2080567"><ele>38.5</ele><time>2026-04-02T13:13:22.902Z</time></trkpt><trkpt lat="43.7837233" lon="11.2079517"><ele>38.0</ele><time>2026-04-02T13:13:25.901Z</time></trkpt><trkpt lat="43.78376" lon="11.207875"><ele>38.0</ele><time>2026-04-02T13:13:27.902Z</time></trkpt><trkpt lat="43.7838" lon="11.2077783"><ele>38.0</ele><time>2026-04-02T13:13:29.901Z</time></trkpt><trkpt lat="43.7838683" lon="11.2076717"><ele>38.0</ele><time>2026-04-02T13:13:31.901Z</time></trkpt><trkpt lat="43.7839233" lon="11.2075683"><ele>38.0</ele><time>2026-04-02T13:13:33.901Z</time></trkpt><trkpt lat="43.78397" lon="11.2074583"><ele>38.0</ele><time>2026-04-02T13:13:35.901Z</time></trkpt><trkpt lat="43.7840267" lon="11.207345"><ele>38.33333333333333</ele><time>2026-04-02T13:13:37.901Z</time></trkpt><trkpt lat="43.784085" lon="11.207235"><ele>38.666666666666664</ele><time>2026-04-02T13:13:39.901Z</time></trkpt><trkpt lat="43.784145" lon="11.2071217"><ele>39.0</ele><time>2026-04-02T13:13:41.901Z</time></trkpt><trkpt lat="43.7841917" lon="11.20703"><ele>39.333333333333336</ele><time>2026-04-02T13:13:43.901Z</time></trkpt><trkpt lat="43.7842333" lon="11.2069333"><ele>39.66666666666667</ele><time>2026-04-02T13:13:45.901Z</time></trkpt><trkpt lat="43.7842783" lon="11.2068317"><ele>40.0</ele><time>2026-04-02T13:13:47.901Z</time></trkpt><trkpt lat="43.7843283" lon="11.20673"><ele>40.0</ele><time>2026-04-02T13:13:49.902Z</time></trkpt><trkpt lat="43.78438" lon="11.2066383"><ele>40.0</ele><time>2026-04-02T13:13:51.902Z</time></trkpt><trkpt lat="43.78442" lon="11.2065583"><ele>40.0</ele><time>2026-04-02T13:13:53.901Z</time></trkpt><trkpt lat="43.78446" lon="11.20645"><ele>40.0</ele><time>2026-04-02T13:13:56.902Z</time></trkpt><trkpt lat="43.7845067" lon="11.2063533"><ele>40.0</ele><time>2026-04-02T13:13:58.902Z</time></trkpt><trkpt lat="43.7845517" lon="11.2062633"><ele>40.0</ele><time>2026-04-02T13:14:00.901Z</time></trkpt><trkpt lat="43.7845933" lon="11.206165"><ele>40.0</ele><time>2026-04-02T13:14:02.902Z</time></trkpt><trkpt lat="43.7846433" lon="11.2060683"><ele>40.0</ele><time>2026-04-02T13:14:04.901Z</time></trkpt><trkpt lat="43.78469" lon="11.2059617"><ele>40.0</ele><time>2026-04-02T13:14:06.902Z</time></trkpt><trkpt lat="43.7847417" lon="11.2058517"><ele>40.0</ele><time>2026-04-02T13:14:08.902Z</time></trkpt><trkpt lat="43.78479" lon="11.2057467"><ele>40.0</ele><time>2026-04-02T13:14:10.901Z</time></trkpt><trkpt lat="43.7848333" lon="11.2056633"><ele>40.0</ele><time>2026-04-02T13:14:12.902Z</time></trkpt><trkpt lat="43.7848733" lon="11.2055733"><ele>39.833333333333336</ele><time>2026-04-02T13:14:14.902Z</time></trkpt><trkpt lat="43.7849117" lon="11.2054733"><ele>39.66666666666667</ele><time>2026-04-02T13:14:16.901Z</time></trkpt><trkpt lat="43.7849517" lon="11.2053633"><ele>39.5</ele><time>2026-04-02T13:14:18.901Z</time></trkpt><trkpt lat="43.78499" lon="11.2052583"><ele>39.333333333333336</ele><time>2026-04-02T13:14:20.901Z</time></trkpt><trkpt lat="43.7850217" lon="11.20517"><ele>39.166666666666664</ele><time>2026-04-02T13:14:22.901Z</time></trkpt><trkpt lat="43.78506" lon="11.20506"><ele>39.0</ele><time>2026-04-02T13:14:24.901Z</time></trkpt><trkpt lat="43.7850567" lon="11.204965"><ele>39.0</ele><time>2026-04-02T13:14:26.901Z</time></trkpt><trkpt lat="43.7849667" lon="11.2049017"><ele>39.0</ele><time>2026-04-02T13:14:29.9Z</time></trkpt><trkpt lat="43.78489" lon="11.204865"><ele>39.0</ele><time>2026-04-02T13:14:31.9Z</time></trkpt><trkpt lat="43.78481" lon="11.2048467"><ele>39.0</ele><time>2026-04-02T13:14:33.9Z</time></trkpt><trkpt lat="43.78472" lon="11.204825"><ele>39.0</ele><time>2026-04-02T13:14:35.901Z</time></trkpt><trkpt lat="43.7846117" lon="11.2047783"><ele>39.2</ele><time>2026-04-02T13:14:37.9Z</time></trkpt><trkpt lat="43.7845067" lon="11.2047417"><ele>39.4</ele><time>2026-04-02T13:14:39.9Z</time></trkpt><trkpt lat="43.7844117" lon="11.2047117"><ele>39.6</ele><time>2026-04-02T13:14:41.9Z</time></trkpt><trkpt lat="43.78432" lon="11.2046817"><ele>39.8</ele><time>2026-04-02T13:14:43.9Z</time></trkpt><trkpt lat="43.78423" lon="11.204655"><ele>40.0</ele><time>2026-04-02T13:14:45.901Z</time></trkpt><trkpt lat="43.7841333" lon="11.20462"><ele>40.0</ele><time>2026-04-02T13:14:47.9Z</time></trkpt><trkpt lat="43.7840467" lon="11.20458"><ele>40.0</ele><time>2026-04-02T13:14:49.9Z</time></trkpt><trkpt lat="43.7839617" lon="11.2045583"><ele>40.0</ele><time>2026-04-02T13:14:51.9Z</time></trkpt><trkpt lat="43.7838617" lon="11.204505"><ele>40.0</ele><time>2026-04-02T13:14:53.901Z</time></trkpt><trkpt lat="43.7837633" lon="11.2044583"><ele>40.0</ele><time>2026-04-02T13:14:55.901Z</time></trkpt><trkpt lat="43.783675" lon="11.204415"><ele>40.0</ele><time>2026-04-02T13:14:57.901Z</time></trkpt><trkpt lat="43.783595" lon="11.2043533"><ele>40.0</ele><time>2026-04-02T13:14:59.9Z</time></trkpt><trkpt lat="43.783495" lon="11.204295"><ele>40.0</ele><time>2026-04-02T13:15:01.9Z</time></trkpt><trkpt lat="43.7833917" lon="11.2042517"><ele>40.0</ele><time>2026-04-02T13:15:03.901Z</time></trkpt><trkpt lat="43.7832767" lon="11.204225"><ele>40.0</ele><time>2026-04-02T13:15:05.9Z</time></trkpt><trkpt lat="43.7831583" lon="11.2041867"><ele>40.0</ele><time>2026-04-02T13:15:07.9Z</time></trkpt><trkpt lat="43.7830567" lon="11.204155"><ele>40.0</ele><time>2026-04-02T13:15:09.9Z</time></trkpt><trkpt lat="43.78295" lon="11.204135"><ele>40.0</ele><time>2026-04-02T13:15:11.9Z</time></trkpt><trkpt lat="43.7828367" lon="11.2040983"><ele>40.0</ele><time>2026-04-02T13:15:13.9Z</time></trkpt><trkpt lat="43.7827183" lon="11.2040683"><ele>40.0</ele><time>2026-04-02T13:15:15.9Z</time></trkpt><trkpt lat="43.7825983" lon="11.2040267"><ele>39.8</ele><time>2026-04-02T13:15:17.9Z</time></trkpt><trkpt lat="43.7825367" lon="11.2040067"><ele>39.6</ele><time>2026-04-02T13:15:18.9Z</time></trkpt><trkpt lat="43.7824217" lon="11.20399"><ele>39.4</ele><time>2026-04-02T13:15:20.9Z</time></trkpt><trkpt lat="43.78233" lon="11.2040333"><ele>39.2</ele><time>2026-04-02T13:15:22.9Z</time></trkpt><trkpt lat="43.782255" lon="11.20413"><ele>39.0</ele><time>2026-04-02T13:15:24.901Z</time></trkpt><trkpt lat="43.78222" lon="11.2042483"><ele>39.0</ele><time>2026-04-02T13:15:26.9Z</time></trkpt><trkpt lat="43.78218" lon="11.20438"><ele>39.0</ele><time>2026-04-02T13:15:28.9Z</time></trkpt><trkpt lat="43.78215" lon="11.2045283"><ele>39.0</ele><time>2026-04-02T13:15:30.9Z</time></trkpt><trkpt lat="43.78213" lon="11.2046717"><ele>39.0</ele><time>2026-04-02T13:15:32.9Z</time></trkpt><trkpt lat="43.7821083" lon="11.2047733"><ele>39.0</ele><time>2026-04-02T13:15:34.9Z</time></trkpt><trkpt lat="43.782065" lon="11.2048467"><ele>39.0</ele><time>2026-04-02T13:15:37.901Z</time></trkpt><trkpt lat="43.78204" lon="11.2047417"><ele>39.0</ele><time>2026-04-02T13:15:42.901Z</time></trkpt><trkpt lat="43.78205" lon="11.2046517"><ele>39.0</ele><time>2026-04-02T13:15:45.901Z</time></trkpt><trkpt lat="43.7820183" lon="11.204555"><ele>39.0</ele><time>2026-04-02T13:15:48.901Z</time></trkpt><trkpt lat="43.78193" lon="11.2045583"><ele>39.0</ele><time>2026-04-02T13:15:51.9Z</time></trkpt><trkpt lat="43.781865" lon="11.20457"><ele>39.0</ele><time>2026-04-02T13:15:53.9Z</time></trkpt><trkpt lat="43.7817933" lon="11.204515"><ele>39.0</ele><time>2026-04-02T13:15:56.9Z</time></trkpt><trkpt lat="43.7817383" lon="11.20445"><ele>39.0</ele><time>2026-04-02T13:15:59.9Z</time></trkpt><trkpt lat="43.7816617" lon="11.2044317"><ele>39.0</ele><time>2026-04-02T13:16:02.901Z</time></trkpt><trkpt lat="43.7815783" lon="11.204475"><ele>39.0</ele><time>2026-04-02T13:16:05.9Z</time></trkpt><trkpt lat="43.781505" lon="11.2044967"><ele>39.0</ele><time>2026-04-02T13:16:07.9Z</time></trkpt><trkpt lat="43.7814317" lon="11.2045117"><ele>39.0</ele><time>2026-04-02T13:16:09.9Z</time></trkpt><trkpt lat="43.78135" lon="11.2045267"><ele>39.0</ele><time>2026-04-02T13:16:11.9Z</time></trkpt><trkpt lat="43.7812633" lon="11.2045483"><ele>39.0</ele><time>2026-04-02T13:16:13.9Z</time></trkpt><trkpt lat="43.7811633" lon="11.20455"><ele>39.0</ele><time>2026-04-02T13:16:15.9Z</time></trkpt><trkpt lat="43.781065" lon="11.2045617"><ele>39.0</ele><time>2026-04-02T13:16:17.9Z</time></trkpt><trkpt lat="43.78096" lon="11.204565"><ele>39.0</ele><time>2026-04-02T13:16:19.9Z</time></trkpt><trkpt lat="43.7808617" lon="11.2045767"><ele>38.8</ele><time>2026-04-02T13:16:21.901Z</time></trkpt><trkpt lat="43.7807933" lon="11.20458"><ele>38.599999999999994</ele><time>2026-04-02T13:16:23.9Z</time></trkpt><trkpt lat="43.7807217" lon="11.2045817"><ele>38.4</ele><time>2026-04-02T13:16:25.901Z</time></trkpt><trkpt lat="43.780635" lon="11.20461"><ele>38.199999999999996</ele><time>2026-04-02T13:16:27.9Z</time></trkpt><trkpt lat="43.7805267" lon="11.20466"><ele>38.0</ele><time>2026-04-02T13:16:29.901Z</time></trkpt><trkpt lat="43.78042" lon="11.204705"><ele>38.0</ele><time>2026-04-02T13:16:31.9Z</time></trkpt><trkpt lat="43.78033" lon="11.2047317"><ele>38.0</ele><time>2026-04-02T13:16:33.9Z</time></trkpt><trkpt lat="43.7802333" lon="11.2047683"><ele>38.0</ele><time>2026-04-02T13:16:35.9Z</time></trkpt><trkpt lat="43.7801567" lon="11.2047917"><ele>38.0</ele><time>2026-04-02T13:16:37.9Z</time></trkpt><trkpt lat="43.78008" lon="11.20481"><ele>38.0</ele><time>2026-04-02T13:16:39.901Z</time></trkpt><trkpt lat="43.78" lon="11.2048683"><ele>38.0</ele><time>2026-04-02T13:16:41.9Z</time></trkpt><trkpt lat="43.7799017" lon="11.2049133"><ele>38.0</ele><time>2026-04-02T13:16:43.9Z</time></trkpt><trkpt lat="43.77982" lon="11.20493"><ele>38.0</ele><time>2026-04-02T13:16:45.9Z</time></trkpt><trkpt lat="43.779755" lon="11.2049167"><ele>38.0</ele><time>2026-04-02T13:16:47.9Z</time></trkpt><trkpt lat="43.7796883" lon="11.204925"><ele>38.0</ele><time>2026-04-02T13:16:49.9Z</time></trkpt><trkpt lat="43.7796167" lon="11.20494"><ele>38.0</ele><time>2026-04-02T13:16:51.9Z</time></trkpt><trkpt lat="43.779535" lon="11.2049133"><ele>38.0</ele><time>2026-04-02T13:16:54.9Z</time></trkpt><trkpt lat="43.779505" lon="11.2048183"><ele>38.0</ele><time>2026-04-02T13:16:56.9Z</time></trkpt><trkpt lat="43.77951" lon="11.204725"><ele>38.0</ele><time>2026-04-02T13:16:58.9Z</time></trkpt><trkpt lat="43.7795233" lon="11.2046083"><ele>38.0</ele><time>2026-04-02T13:17:00.9Z</time></trkpt><trkpt lat="43.7795367" lon="11.2044933"><ele>38.0</ele><time>2026-04-02T13:17:02.9Z</time></trkpt><trkpt lat="43.7795467" lon="11.2043717"><ele>38.0</ele><time>2026-04-02T13:17:04.901Z</time></trkpt><trkpt lat="43.7795633" lon="11.2042433"><ele>38.0</ele><time>2026-04-02T13:17:06.9Z</time></trkpt><trkpt lat="43.7795817" lon="11.2041217"><ele>38.0</ele><time>2026-04-02T13:17:08.9Z</time></trkpt><trkpt lat="43.7796017" lon="11.2039883"><ele>38.33333333333333</ele><time>2026-04-02T13:17:10.9Z</time></trkpt><trkpt lat="43.7796183" lon="11.2038483"><ele>38.666666666666664</ele><time>2026-04-02T13:17:12.9Z</time></trkpt><trkpt lat="43.779625" lon="11.20374"><ele>39.0</ele><time>2026-04-02T13:17:14.9Z</time></trkpt><trkpt lat="43.7796383" lon="11.203625"><ele>39.333333333333336</ele><time>2026-04-02T13:17:16.9Z</time></trkpt><trkpt lat="43.7796533" lon="11.2035183"><ele>39.66666666666667</ele><time>2026-04-02T13:17:18.9Z</time></trkpt><trkpt lat="43.779705" lon="11.2034417"><ele>40.0</ele><time>2026-04-02T13:17:20.9Z</time></trkpt><trkpt lat="43.779765" lon="11.2033733"><ele>40.0</ele><time>2026-04-02T13:17:22.9Z</time></trkpt><trkpt lat="43.7798233" lon="11.2032967"><ele>40.0</ele><time>2026-04-02T13:17:24.9Z</time></trkpt><trkpt lat="43.7798517" lon="11.2031817"><ele>40.0</ele><time>2026-04-02T13:17:26.9Z</time></trkpt><trkpt lat="43.7798683" lon="11.2030533"><ele>40.0</ele><time>2026-04-02T13:17:28.9Z</time></trkpt><trkpt lat="43.7798867" lon="11.2029233"><ele>40.0</ele><time>2026-04-02T13:17:30.901Z</time></trkpt><trkpt lat="43.7798983" lon="11.202815"><ele>40.0</ele><time>2026-04-02T13:17:32.9Z</time></trkpt><trkpt lat="43.7799183" lon="11.202705"><ele>40.0</ele><time>2026-04-02T13:17:34.901Z</time></trkpt><trkpt lat="43.7799333" lon="11.202595"><ele>40.0</ele><time>2026-04-02T13:17:36.9Z</time></trkpt><trkpt lat="43.7799483" lon="11.2024883"><ele>40.0</ele><time>2026-04-02T13:17:38.9Z</time></trkpt><trkpt lat="43.7799667" lon="11.2023767"><ele>40.0</ele><time>2026-04-02T13:17:40.9Z</time></trkpt><trkpt lat="43.7799867" lon="11.2022783"><ele>40.0</ele><time>2026-04-02T13:17:42.9Z</time></trkpt><trkpt lat="43.7799833" lon="11.2021467"><ele>40.0</ele><time>2026-04-02T13:17:45.901Z</time></trkpt><trkpt lat="43.7799917" lon="11.2020117"><ele>40.16666666666667</ele><time>2026-04-02T13:17:48.901Z</time></trkpt><trkpt lat="43.779995" lon="11.20192"><ele>40.333333333333336</ele><time>2026-04-02T13:17:50.901Z</time></trkpt><trkpt lat="43.7799967" lon="11.2018033"><ele>40.5</ele><time>2026-04-02T13:17:53.901Z</time></trkpt><trkpt lat="43.78003" lon="11.2017133"><ele>40.666666666666664</ele><time>2026-04-02T13:17:56.9Z</time></trkpt><trkpt lat="43.7799333" lon="11.201675"><ele>40.83333333333333</ele><time>2026-04-02T13:18:00.9Z</time></trkpt><trkpt lat="43.77985" lon="11.2016517"><ele>41.0</ele><time>2026-04-02T13:18:02.901Z</time></trkpt><trkpt lat="43.7797767" lon="11.2016483"><ele>41.0</ele><time>2026-04-02T13:18:04.901Z</time></trkpt><trkpt lat="43.7797133" lon="11.20165"><ele>41.0</ele><time>2026-04-02T13:18:06.9Z</time></trkpt><trkpt lat="43.7796317" lon="11.2016317"><ele>41.0</ele><time>2026-04-02T13:18:08.901Z</time></trkpt><trkpt lat="43.7795417" lon="11.2015917"><ele>41.0</ele><time>2026-04-02T13:18:10.9Z</time></trkpt><trkpt lat="43.7794567" lon="11.201545"><ele>41.0</ele><time>2026-04-02T13:18:12.9Z</time></trkpt><trkpt lat="43.77939" lon="11.2015317"><ele>41.0</ele><time>2026-04-02T13:18:14.9Z</time></trkpt><trkpt lat="43.7793233" lon="11.201505"><ele>40.83333333333333</ele><time>2026-04-02T13:18:16.9Z</time></trkpt><trkpt lat="43.77925" lon="11.2014617"><ele>40.666666666666664</ele><time>2026-04-02T13:18:18.899Z</time></trkpt><trkpt lat="43.7791817" lon="11.2014267"><ele>40.5</ele><time>2026-04-02T13:18:20.899Z</time></trkpt><trkpt lat="43.7791183" lon="11.201375"><ele>40.333333333333336</ele><time>2026-04-02T13:18:22.899Z</time></trkpt><trkpt lat="43.7790517" lon="11.2013233"><ele>40.16666666666667</ele><time>2026-04-02T13:18:24.899Z</time></trkpt><trkpt lat="43.7789933" lon="11.20126"><ele>40.0</ele><time>2026-04-02T13:18:26.9Z</time></trkpt><trkpt lat="43.7789033" lon="11.2011183"><ele>40.0</ele><time>2026-04-02T13:18:28.9Z</time></trkpt><trkpt lat="43.7788267" lon="11.2010333"><ele>40.0</ele><time>2026-04-02T13:18:30.899Z</time></trkpt><trkpt lat="43.7787567" lon="11.200965"><ele>40.0</ele><time>2026-04-02T13:18:32.899Z</time></trkpt><trkpt lat="43.7786967" lon="11.2008617"><ele>40.0</ele><time>2026-04-02T13:18:34.899Z</time></trkpt><trkpt lat="43.778625" lon="11.2007833"><ele>40.0</ele><time>2026-04-02T13:18:37.9Z</time></trkpt><trkpt lat="43.7785567" lon="11.20074"><ele>40.0</ele><time>2026-04-02T13:18:41.9Z</time></trkpt><trkpt lat="43.778495" lon="11.2007917"><ele>40.0</ele><time>2026-04-02T13:18:47.899Z</time></trkpt><trkpt lat="43.7784417" lon="11.200745"><ele>40.0</ele><time>2026-04-02T13:18:56.899Z</time></trkpt><trkpt lat="43.778375" lon="11.2007"><ele>40.0</ele><time>2026-04-02T13:19:00.9Z</time></trkpt><trkpt lat="43.7783067" lon="11.2006767"><ele>40.0</ele><time>2026-04-02T13:19:03.9Z</time></trkpt><trkpt lat="43.77826" lon="11.2006167"><ele>40.0</ele><time>2026-04-02T13:19:10.9Z</time></trkpt><trkpt lat="43.7782741" lon="11.2005185"><ele>40.0</ele><time>2026-04-02T13:20:57.899Z</time></trkpt><trkpt lat="43.7782729" lon="11.2004144"><ele>40.0</ele><time>2026-04-02T13:21:14.899Z</time></trkpt><trkpt lat="43.77821" lon="11.2003998"><ele>40.0</ele><time>2026-04-02T13:21:28.9Z</time></trkpt><trkpt lat="43.7781597" lon="11.2003455"><ele>40.0</ele><time>2026-04-02T13:21:45.899Z</time></trkpt><trkpt lat="43.7781017" lon="11.2003"><ele>40.0</ele><time>2026-04-02T13:21:50.9Z</time></trkpt><trkpt lat="43.7780517" lon="11.200235"><ele>40.0</ele><time>2026-04-02T13:21:56.898Z</time></trkpt><trkpt lat="43.7779837" lon="11.2003192"><ele>40.0</ele><time>2026-04-02T13:22:45.898Z</time></trkpt><trkpt lat="43.7780314" lon="11.2002349"><ele>40.0</ele><time>2026-04-02T13:22:57.898Z</time></trkpt><trkpt lat="43.7780576" lon="11.2001533"><ele>40.0</ele><time>2026-04-02T13:22:59.898Z</time></trkpt><trkpt lat="43.7779783" lon="11.2001985"><ele>40.0</ele><time>2026-04-02T13:23:03.898Z</time></trkpt><trkpt lat="43.7779422" lon="11.2002723"><ele>40.0</ele><time>2026-04-02T13:23:13.898Z</time></trkpt><trkpt lat="43.7780245" lon="11.2002925"><ele>40.0</ele><time>2026-04-02T13:23:20.898Z</time></trkpt><trkpt lat="43.7781175" lon="11.2003009"><ele>40.0</ele><time>2026-04-02T13:23:48.899Z</time></trkpt><trkpt lat="43.7781893" lon="11.2002592"><ele>40.0</ele><time>2026-04-02T13:23:52.898Z</time></trkpt><trkpt lat="43.7782045" lon="11.2001625"><ele>40.0</ele><time>2026-04-02T13:24:00.898Z</time></trkpt><trkpt lat="43.7781386" lon="11.2000911"><ele>40.0</ele><time>2026-04-02T13:24:06.899Z</time></trkpt><trkpt lat="43.7780668" lon="11.2000644"><ele>40.0</ele><time>2026-04-02T13:24:12.899Z</time></trkpt><trkpt lat="43.7780909" lon="11.2001628"><ele>40.0</ele><time>2026-04-02T13:24:37.899Z</time></trkpt><trkpt lat="43.778025" lon="11.2001433"><ele>40.0</ele><time>2026-04-02T13:25:53.898Z</time></trkpt><trkpt lat="43.7779667" lon="11.2001767"><ele>40.0</ele><time>2026-04-02T13:26:38.898Z</time></trkpt><trkpt lat="43.7778867" lon="11.20023"><ele>40.0</ele><time>2026-04-02T13:35:28.894Z</time></trkpt><trkpt lat="43.7777667" lon="11.2002317"><ele>40.0</ele><time>2026-04-02T13:35:30.894Z</time></trkpt><trkpt lat="43.777675" lon="11.2002417"><ele>40.0</ele><time>2026-04-02T13:35:32.894Z</time></trkpt><trkpt lat="43.77761" lon="11.200255"><ele>40.0</ele><time>2026-04-02T13:35:39.894Z</time></trkpt><trkpt lat="43.7776883" lon="11.200235"><ele>40.0</ele><time>2026-04-02T13:35:42.894Z</time></trkpt><trkpt lat="43.777755" lon="11.2002217"><ele>40.0</ele><time>2026-04-02T13:35:58.894Z</time></trkpt><trkpt lat="43.7778683" lon="11.2002067"><ele>40.0</ele><time>2026-04-02T13:37:34.894Z</time></trkpt><trkpt lat="43.7779833" lon="11.200205"><ele>40.0</ele><time>2026-04-02T13:38:35.894Z</time></trkpt><trkpt lat="43.7779817" lon="11.2001"><ele>40.0</ele><time>2026-04-02T13:39:41.906Z</time></trkpt><trkpt lat="43.77785" lon="11.20012"><ele>40.0</ele><time>2026-04-02T13:39:44.906Z</time></trkpt><trkpt lat="43.77776" lon="11.20018"><ele>40.0</ele><time>2026-04-02T13:39:47.905Z</time></trkpt><trkpt lat="43.7778883" lon="11.2002233"><ele>40.0</ele><time>2026-04-02T13:39:59.906Z</time></trkpt><trkpt lat="43.7780517" lon="11.2002267"><ele>40.0</ele><time>2026-04-02T13:40:01.905Z</time></trkpt><trkpt lat="43.7781183" lon="11.2001733"><ele>40.0</ele><time>2026-04-02T13:40:21.905Z</time></trkpt><trkpt lat="43.77807" lon="11.2002317"><ele>40.0</ele><time>2026-04-02T13:41:31.905Z</time></trkpt><trkpt lat="43.778005" lon="11.2002133"><ele>40.0</ele><time>2026-04-02T13:41:42.905Z</time></trkpt><trkpt lat="43.777965" lon="11.200145"><ele>40.0</ele><time>2026-04-02T13:42:14.905Z</time></trkpt><trkpt lat="43.7779067" lon="11.20019"><ele>40.0</ele><time>2026-04-02T13:44:38.904Z</time></trkpt><trkpt lat="43.7779733" lon="11.2001617"><ele>40.0</ele><time>2026-04-02T13:49:04.902Z</time></trkpt><trkpt lat="43.7780417" lon="11.2001383"><ele>40.0</ele><time>2026-04-02T13:53:03.902Z</time></trkpt><trkpt lat="43.7780267" lon="11.2002233"><ele>40.0</ele><time>2026-04-02T13:55:47.9Z</time></trkpt><trkpt lat="43.778095" lon="11.2002283"><ele>40.0</ele><time>2026-04-02T14:05:31.897Z</time></trkpt><trkpt lat="43.7780717" lon="11.20031"><ele>40.0</ele><time>2026-04-02T14:07:13.896Z</time></trkpt><trkpt lat="43.7780067" lon="11.200305"><ele>40.0</ele><time>2026-04-02T14:07:58.896Z</time></trkpt><trkpt lat="43.77797" lon="11.2002333"><ele>40.0</ele><time>2026-04-02T14:08:34.896Z</time></trkpt><trkpt lat="43.77805" lon="11.2002667"><ele>40.0</ele><time>2026-04-02T14:10:45.895Z</time></trkpt><trkpt lat="43.77811" lon="11.2002367"><ele>40.0</ele><time>2026-04-02T14:10:48.895Z</time></trkpt><trkpt lat="43.7780583" lon="11.20029"><ele>40.0</ele><time>2026-04-02T14:13:14.894Z</time></trkpt><trkpt lat="43.777995" lon="11.2002783"><ele>40.0</ele><time>2026-04-02T14:16:24.893Z</time></trkpt><trkpt lat="43.7779783" lon="11.2001933"><ele>40.0</ele><time>2026-04-02T14:17:09.894Z</time></trkpt><trkpt lat="43.7779267" lon="11.200245"><ele>40.0</ele><time>2026-04-02T14:18:48.892Z</time></trkpt><trkpt lat="43.7779783" lon="11.2003"><ele>40.0</ele><time>2026-04-02T14:19:45.892Z</time></trkpt><trkpt lat="43.7780083" lon="11.20022"><ele>40.0</ele><time>2026-04-02T14:23:51.89Z</time></trkpt><trkpt lat="43.777945" lon="11.2001933"><ele>40.0</ele><time>2026-04-02T14:24:51.89Z</time></trkpt><trkpt lat="43.778005" lon="11.20022"><ele>40.0</ele><time>2026-04-02T14:26:16.889Z</time></trkpt><trkpt lat="43.7780933" lon="11.2001983"><ele>40.0</ele><time>2026-04-02T14:31:50.887Z</time></trkpt><trkpt lat="43.7781167" lon="11.2001117"><ele>40.0</ele><time>2026-04-02T14:32:32.887Z</time></trkpt><trkpt lat="43.7781883" lon="11.20014"><ele>40.0</ele><time>2026-04-02T14:38:24.885Z</time></trkpt><trkpt lat="43.7782933" lon="11.2001517"><ele>40.0</ele><time>2026-04-02T14:39:25.885Z</time></trkpt><trkpt lat="43.7782333" lon="11.2001783"><ele>40.0</ele><time>2026-04-02T14:40:24.884Z</time></trkpt><trkpt lat="43.7782233" lon="11.2002667"><ele>40.0</ele><time>2026-04-02T14:41:28.884Z</time></trkpt><trkpt lat="43.7781367" lon="11.2002533"><ele>40.0</ele><time>2026-04-02T14:41:33.884Z</time></trkpt><trkpt lat="43.7780667" lon="11.2002717"><ele>40.0</ele><time>2026-04-02T14:41:40.884Z</time></trkpt><trkpt lat="43.777985" lon="11.20029"><ele>40.0</ele><time>2026-04-02T14:41:45.884Z</time></trkpt><trkpt lat="43.77792" lon="11.2003217"><ele>40.0</ele><time>2026-04-02T14:42:16.883Z</time></trkpt><trkpt lat="43.77786" lon="11.2002817"><ele>40.0</ele><time>2026-04-02T14:42:28.883Z</time></trkpt><trkpt lat="43.7778033" lon="11.200225"><ele>40.0</ele><time>2026-04-02T14:42:49.883Z</time></trkpt><trkpt lat="43.77786" lon="11.2001717"><ele>40.0</ele><time>2026-04-02T14:43:58.883Z</time></trkpt><trkpt lat="43.7779067" lon="11.2002317"><ele>40.0</ele><time>2026-04-02T14:45:08.883Z</time></trkpt><trkpt lat="43.7779267" lon="11.20014"><ele>40.0</ele><time>2026-04-02T14:49:06.881Z</time></trkpt><trkpt lat="43.7779467" lon="11.2000567"><ele>40.0</ele><time>2026-04-02T14:49:50.881Z</time></trkpt><trkpt lat="43.77804" lon="11.2000517"><ele>40.0</ele><time>2026-04-02T14:51:02.88Z</time></trkpt><trkpt lat="43.778" lon="11.20012"><ele>40.0</ele><time>2026-04-02T14:52:07.88Z</time></trkpt><trkpt lat="43.7781633" lon="11.20018"><ele>40.0</ele><time>2026-04-02T14:58:51.877Z</time></trkpt><trkpt lat="43.77823" lon="11.2001617"><ele>40.0</ele><time>2026-04-02T14:58:52.878Z</time></trkpt><trkpt lat="43.7782967" lon="11.2001467"><ele>40.0</ele><time>2026-04-02T14:58:53.877Z</time></trkpt><trkpt lat="43.7783967" lon="11.2001233"><ele>40.0</ele><time>2026-04-02T14:58:55.878Z</time></trkpt><trkpt lat="43.7783883" lon="11.200035"><ele>40.0</ele><time>2026-04-02T15:00:33.877Z</time></trkpt><trkpt lat="43.7783233" lon="11.200025"><ele>40.0</ele><time>2026-04-02T15:01:35.876Z</time></trkpt><trkpt lat="43.778275" lon="11.20009"><ele>40.0</ele><time>2026-04-02T15:01:55.877Z</time></trkpt><trkpt lat="43.778205" lon="11.2000733"><ele>40.0</ele><time>2026-04-02T15:02:23.877Z</time></trkpt><trkpt lat="43.7781433" lon="11.2001417"><ele>40.0</ele><time>2026-04-02T15:03:28.876Z</time></trkpt><trkpt lat="43.778115" lon="11.200225"><ele>40.0</ele><time>2026-04-02T15:03:49.875Z</time></trkpt><trkpt lat="43.7780583" lon="11.2001833"><ele>40.0</ele><time>2026-04-02T15:04:38.875Z</time></trkpt><trkpt lat="43.7779833" lon="11.2002367"><ele>40.0</ele><time>2026-04-02T15:08:37.874Z</time></trkpt><trkpt lat="43.7779367" lon="11.2003117"><ele>40.0</ele><time>2026-04-02T15:11:41.872Z</time></trkpt><trkpt lat="43.7778983" lon="11.2003917"><ele>40.0</ele><time>2026-04-02T15:11:43.872Z</time></trkpt><trkpt lat="43.7778633" lon="11.20031"><ele>40.0</ele><time>2026-04-02T15:13:14.872Z</time></trkpt><trkpt lat="43.7779983" lon="11.2002967"><ele>40.0</ele><time>2026-04-02T15:19:27.869Z</time></trkpt><trkpt lat="43.7779483" lon="11.20022"><ele>40.0</ele><time>2026-04-02T15:28:34.866Z</time></trkpt><trkpt lat="43.7779517" lon="11.2000867"><ele>40.0</ele><time>2026-04-02T15:31:41.865Z</time></trkpt><trkpt lat="43.7778067" lon="11.2001367"><ele>40.0</ele><time>2026-04-02T15:32:02.866Z</time></trkpt><trkpt lat="43.777725" lon="11.2001933"><ele>40.0</ele><time>2026-04-02T15:32:04.865Z</time></trkpt><trkpt lat="43.7778133" lon="11.2001533"><ele>40.0</ele><time>2026-04-02T15:33:19.864Z</time></trkpt><trkpt lat="43.777885" lon="11.20012"><ele>40.0</ele><time>2026-04-02T15:34:00.864Z</time></trkpt><trkpt lat="43.7779683" lon="11.200165"><ele>40.0</ele><time>2026-04-02T15:34:22.864Z</time></trkpt><trkpt lat="43.7779017" lon="11.200215"><ele>40.0</ele><time>2026-04-02T15:34:25.864Z</time></trkpt><trkpt lat="43.77779" lon="11.2002417"><ele>40.0</ele><time>2026-04-02T15:34:50.865Z</time></trkpt><trkpt lat="43.7777033" lon="11.2002783"><ele>40.0</ele><time>2026-04-02T15:34:53.863Z</time></trkpt><trkpt lat="43.7780417" lon="11.2002511"><ele>40.0</ele><time>2026-04-02T15:35:17.163Z</time></trkpt><trkpt lat="43.777665" lon="11.2003817"><ele>40.0</ele><time>2026-04-02T15:35:24.905Z</time></trkpt><trkpt lat="43.7777783" lon="11.2003933"><ele>40.0</ele><time>2026-04-02T15:35:35.905Z</time></trkpt><trkpt lat="43.77796" lon="11.2003167"><ele>40.0</ele><time>2026-04-02T15:35:40.905Z</time></trkpt><trkpt lat="43.7780167" lon="11.2002533"><ele>40.0</ele><time>2026-04-02T15:35:44.905Z</time></trkpt><trkpt lat="43.7779667" lon="11.2002"><ele>40.0</ele><time>2026-04-02T15:36:58.905Z</time></trkpt><trkpt lat="43.7780633" lon="11.2001667"><ele>40.0</ele><time>2026-04-02T15:38:01.904Z</time></trkpt><trkpt lat="43.7781233" lon="11.200125"><ele>40.0</ele><time>2026-04-02T15:38:25.904Z</time></trkpt></trkseg></trk></gpx>